<?xml version="1.0" encoding="UTF-8" standalone="no" ?>
<gpx xmlns="http://www.topografix.com/GPX/1/1" xmlns:xsi="http://www.w3.org/2001/XMLSchema-instance" xsi:schemaLocation="http://www.topografix.com/GPX/1/1 http://www.topografix.com/GPX/1/1/gpx.xsd" version="1.1" creator="VisuGPX - https://www.visugpx.com">
  <metadata>
    <name>Realmont- 12 OCT 2016 10-19-MNT</name>
    <desc><![CDATA[
]]></desc>
  </metadata>
  <trk>
    <name><![CDATA[Realmont- 12 OCT 2016 10-19-MNT]]></name>
    <trkseg>
      <trkpt lat="43.7768" lon="2.19105">
        <ele>214</ele>
        <time>2016-10-12T08:19:37Z</time>
      </trkpt>
      <trkpt lat="43.77693" lon="2.19097">
        <ele>214</ele>
        <time>2016-10-12T08:19:53Z</time>
      </trkpt>
      <trkpt lat="43.77713" lon="2.19096">
        <ele>215</ele>
        <time>2016-10-12T08:20:08Z</time>
      </trkpt>
      <trkpt lat="43.77715" lon="2.19097">
        <ele>215</ele>
        <time>2016-10-12T08:20:35Z</time>
      </trkpt>
      <trkpt lat="43.77722" lon="2.191">
        <ele>215</ele>
        <time>2016-10-12T08:21:06Z</time>
      </trkpt>
      <trkpt lat="43.77733" lon="2.19113">
        <ele>215</ele>
        <time>2016-10-12T08:21:20Z</time>
      </trkpt>
      <trkpt lat="43.77735" lon="2.19117">
        <ele>215</ele>
        <time>2016-10-12T08:21:23Z</time>
      </trkpt>
      <trkpt lat="43.77741" lon="2.19124">
        <ele>216</ele>
        <time>2016-10-12T08:21:39Z</time>
      </trkpt>
      <trkpt lat="43.77744" lon="2.19117">
        <ele>216</ele>
        <time>2016-10-12T08:21:48Z</time>
      </trkpt>
      <trkpt lat="43.77759" lon="2.19104">
        <ele>216</ele>
        <time>2016-10-12T08:22:07Z</time>
      </trkpt>
      <trkpt lat="43.77775" lon="2.19091">
        <ele>216</ele>
        <time>2016-10-12T08:22:25Z</time>
      </trkpt>
      <trkpt lat="43.77788" lon="2.19078">
        <ele>217</ele>
        <time>2016-10-12T08:22:40Z</time>
      </trkpt>
      <trkpt lat="43.77803" lon="2.19057">
        <ele>217</ele>
        <time>2016-10-12T08:22:59Z</time>
      </trkpt>
      <trkpt lat="43.77817" lon="2.19037">
        <ele>218</ele>
        <time>2016-10-12T08:23:16Z</time>
      </trkpt>
      <trkpt lat="43.7783" lon="2.19015">
        <ele>220</ele>
        <time>2016-10-12T08:23:35Z</time>
      </trkpt>
      <trkpt lat="43.77843" lon="2.1902">
        <ele>220</ele>
        <time>2016-10-12T08:23:47Z</time>
      </trkpt>
      <trkpt lat="43.77863" lon="2.19033">
        <ele>221</ele>
        <time>2016-10-12T08:24:06Z</time>
      </trkpt>
      <trkpt lat="43.77871" lon="2.19031">
        <ele>222</ele>
        <time>2016-10-12T08:24:14Z</time>
      </trkpt>
      <trkpt lat="43.77891" lon="2.19025">
        <ele>223</ele>
        <time>2016-10-12T08:24:32Z</time>
      </trkpt>
      <trkpt lat="43.77905" lon="2.19026">
        <ele>223</ele>
        <time>2016-10-12T08:24:46Z</time>
      </trkpt>
      <trkpt lat="43.77922" lon="2.1903">
        <ele>224</ele>
        <time>2016-10-12T08:25:02Z</time>
      </trkpt>
      <trkpt lat="43.77943" lon="2.19036">
        <ele>226</ele>
        <time>2016-10-12T08:25:19Z</time>
      </trkpt>
      <trkpt lat="43.77957" lon="2.19041">
        <ele>227</ele>
        <time>2016-10-12T08:25:35Z</time>
      </trkpt>
      <trkpt lat="43.77976" lon="2.19048">
        <ele>230</ele>
        <time>2016-10-12T08:25:54Z</time>
      </trkpt>
      <trkpt lat="43.77992" lon="2.19051">
        <ele>232</ele>
        <time>2016-10-12T08:26:10Z</time>
      </trkpt>
      <trkpt lat="43.78011" lon="2.1905">
        <ele>235</ele>
        <time>2016-10-12T08:26:27Z</time>
      </trkpt>
      <trkpt lat="43.78027" lon="2.19048">
        <ele>238</ele>
        <time>2016-10-12T08:26:45Z</time>
      </trkpt>
      <trkpt lat="43.78046" lon="2.19049">
        <ele>239</ele>
        <time>2016-10-12T08:27:02Z</time>
      </trkpt>
      <trkpt lat="43.78067" lon="2.19047">
        <ele>241</ele>
        <time>2016-10-12T08:27:21Z</time>
      </trkpt>
      <trkpt lat="43.78088" lon="2.19046">
        <ele>242</ele>
        <time>2016-10-12T08:27:39Z</time>
      </trkpt>
      <trkpt lat="43.78104" lon="2.19044">
        <ele>243</ele>
        <time>2016-10-12T08:27:54Z</time>
      </trkpt>
      <trkpt lat="43.7812" lon="2.1904">
        <ele>243</ele>
        <time>2016-10-12T08:28:10Z</time>
      </trkpt>
      <trkpt lat="43.78136" lon="2.19036">
        <ele>244</ele>
        <time>2016-10-12T08:28:26Z</time>
      </trkpt>
      <trkpt lat="43.78143" lon="2.19035">
        <ele>244</ele>
        <time>2016-10-12T08:28:44Z</time>
      </trkpt>
      <trkpt lat="43.78141" lon="2.19035">
        <ele>244</ele>
        <time>2016-10-12T08:29:19Z</time>
      </trkpt>
      <trkpt lat="43.78141" lon="2.19035">
        <ele>244</ele>
        <time>2016-10-12T08:30:37Z</time>
      </trkpt>
      <trkpt lat="43.78141" lon="2.19035">
        <ele>244</ele>
        <time>2016-10-12T08:31:29Z</time>
      </trkpt>
      <trkpt lat="43.7814" lon="2.19036">
        <ele>244</ele>
        <time>2016-10-12T08:31:46Z</time>
      </trkpt>
      <trkpt lat="43.78143" lon="2.19037">
        <ele>244</ele>
        <time>2016-10-12T08:32:07Z</time>
      </trkpt>
      <trkpt lat="43.78145" lon="2.19037">
        <ele>245</ele>
        <time>2016-10-12T08:32:52Z</time>
      </trkpt>
      <trkpt lat="43.78145" lon="2.19036">
        <ele>245</ele>
        <time>2016-10-12T08:33:20Z</time>
      </trkpt>
      <trkpt lat="43.78162" lon="2.19031">
        <ele>245</ele>
        <time>2016-10-12T08:33:39Z</time>
      </trkpt>
      <trkpt lat="43.78175" lon="2.19028">
        <ele>247</ele>
        <time>2016-10-12T08:33:55Z</time>
      </trkpt>
      <trkpt lat="43.78176" lon="2.19027">
        <ele>247</ele>
        <time>2016-10-12T08:34:11Z</time>
      </trkpt>
      <trkpt lat="43.78176" lon="2.19028">
        <ele>247</ele>
        <time>2016-10-12T08:35:23Z</time>
      </trkpt>
      <trkpt lat="43.78177" lon="2.19028">
        <ele>247</ele>
        <time>2016-10-12T08:35:59Z</time>
      </trkpt>
      <trkpt lat="43.78177" lon="2.19027">
        <ele>247</ele>
        <time>2016-10-12T08:36:35Z</time>
      </trkpt>
      <trkpt lat="43.78178" lon="2.19029">
        <ele>247</ele>
        <time>2016-10-12T08:37:18Z</time>
      </trkpt>
      <trkpt lat="43.78179" lon="2.19029">
        <ele>247</ele>
        <time>2016-10-12T08:37:56Z</time>
      </trkpt>
      <trkpt lat="43.78179" lon="2.19029">
        <ele>247</ele>
        <time>2016-10-12T08:38:54Z</time>
      </trkpt>
      <trkpt lat="43.78179" lon="2.19028">
        <ele>247</ele>
        <time>2016-10-12T08:40:39Z</time>
      </trkpt>
      <trkpt lat="43.7818" lon="2.19029">
        <ele>247</ele>
        <time>2016-10-12T08:42:03Z</time>
      </trkpt>
      <trkpt lat="43.7818" lon="2.19029">
        <ele>247</ele>
        <time>2016-10-12T08:43:14Z</time>
      </trkpt>
      <trkpt lat="43.7818" lon="2.19029">
        <ele>247</ele>
        <time>2016-10-12T08:44:01Z</time>
      </trkpt>
      <trkpt lat="43.7818" lon="2.19028">
        <ele>247</ele>
        <time>2016-10-12T08:44:33Z</time>
      </trkpt>
      <trkpt lat="43.78182" lon="2.19027">
        <ele>247</ele>
        <time>2016-10-12T08:44:55Z</time>
      </trkpt>
      <trkpt lat="43.78182" lon="2.19027">
        <ele>247</ele>
        <time>2016-10-12T08:45:44Z</time>
      </trkpt>
      <trkpt lat="43.78198" lon="2.19024">
        <ele>249</ele>
        <time>2016-10-12T08:46:17Z</time>
      </trkpt>
      <trkpt lat="43.78202" lon="2.19024">
        <ele>249</ele>
        <time>2016-10-12T08:46:21Z</time>
      </trkpt>
      <trkpt lat="43.78219" lon="2.19018">
        <ele>251</ele>
        <time>2016-10-12T08:46:38Z</time>
      </trkpt>
      <trkpt lat="43.78221" lon="2.19018">
        <ele>251</ele>
        <time>2016-10-12T08:46:40Z</time>
      </trkpt>
      <trkpt lat="43.78235" lon="2.19014">
        <ele>252</ele>
        <time>2016-10-12T08:46:54Z</time>
      </trkpt>
      <trkpt lat="43.78255" lon="2.19008">
        <ele>253</ele>
        <time>2016-10-12T08:47:12Z</time>
      </trkpt>
      <trkpt lat="43.78266" lon="2.19005">
        <ele>253</ele>
        <time>2016-10-12T08:47:28Z</time>
      </trkpt>
      <trkpt lat="43.78284" lon="2.19002">
        <ele>253</ele>
        <time>2016-10-12T08:47:44Z</time>
      </trkpt>
      <trkpt lat="43.78305" lon="2.19001">
        <ele>253</ele>
        <time>2016-10-12T08:48:01Z</time>
      </trkpt>
      <trkpt lat="43.78324" lon="2.19008">
        <ele>251</ele>
        <time>2016-10-12T08:48:18Z</time>
      </trkpt>
      <trkpt lat="43.78326" lon="2.19011">
        <ele>251</ele>
        <time>2016-10-12T08:48:38Z</time>
      </trkpt>
      <trkpt lat="43.78335" lon="2.19015">
        <ele>251</ele>
        <time>2016-10-12T08:48:51Z</time>
      </trkpt>
      <trkpt lat="43.78353" lon="2.19025">
        <ele>249</ele>
        <time>2016-10-12T08:49:10Z</time>
      </trkpt>
      <trkpt lat="43.78355" lon="2.19026">
        <ele>248</ele>
        <time>2016-10-12T08:49:12Z</time>
      </trkpt>
      <trkpt lat="43.7838" lon="2.19038">
        <ele>245</ele>
        <time>2016-10-12T08:49:31Z</time>
      </trkpt>
      <trkpt lat="43.78405" lon="2.1905">
        <ele>243</ele>
        <time>2016-10-12T08:49:51Z</time>
      </trkpt>
      <trkpt lat="43.7843" lon="2.19059">
        <ele>241</ele>
        <time>2016-10-12T08:50:11Z</time>
      </trkpt>
      <trkpt lat="43.78456" lon="2.19064">
        <ele>242</ele>
        <time>2016-10-12T08:50:32Z</time>
      </trkpt>
      <trkpt lat="43.78486" lon="2.1907">
        <ele>243</ele>
        <time>2016-10-12T08:50:55Z</time>
      </trkpt>
      <trkpt lat="43.78508" lon="2.19066">
        <ele>245</ele>
        <time>2016-10-12T08:51:15Z</time>
      </trkpt>
      <trkpt lat="43.78531" lon="2.19062">
        <ele>247</ele>
        <time>2016-10-12T08:51:36Z</time>
      </trkpt>
      <trkpt lat="43.78558" lon="2.19067">
        <ele>249</ele>
        <time>2016-10-12T08:51:57Z</time>
      </trkpt>
      <trkpt lat="43.78576" lon="2.19067">
        <ele>250</ele>
        <time>2016-10-12T08:52:11Z</time>
      </trkpt>
      <trkpt lat="43.78598" lon="2.19068">
        <ele>250</ele>
        <time>2016-10-12T08:52:31Z</time>
      </trkpt>
      <trkpt lat="43.78616" lon="2.1907">
        <ele>250</ele>
        <time>2016-10-12T08:52:49Z</time>
      </trkpt>
      <trkpt lat="43.78624" lon="2.19072">
        <ele>249</ele>
        <time>2016-10-12T08:52:58Z</time>
      </trkpt>
      <trkpt lat="43.78645" lon="2.19079">
        <ele>248</ele>
        <time>2016-10-12T08:53:17Z</time>
      </trkpt>
      <trkpt lat="43.78662" lon="2.1908">
        <ele>247</ele>
        <time>2016-10-12T08:53:34Z</time>
      </trkpt>
      <trkpt lat="43.7868" lon="2.19084">
        <ele>247</ele>
        <time>2016-10-12T08:53:52Z</time>
      </trkpt>
      <trkpt lat="43.78701" lon="2.19086">
        <ele>246</ele>
        <time>2016-10-12T08:54:10Z</time>
      </trkpt>
      <trkpt lat="43.78708" lon="2.19087">
        <ele>247</ele>
        <time>2016-10-12T08:54:16Z</time>
      </trkpt>
      <trkpt lat="43.7872" lon="2.19088">
        <ele>248</ele>
        <time>2016-10-12T08:54:30Z</time>
      </trkpt>
      <trkpt lat="43.78735" lon="2.1909">
        <ele>249</ele>
        <time>2016-10-12T08:54:43Z</time>
      </trkpt>
      <trkpt lat="43.78756" lon="2.19093">
        <ele>251</ele>
        <time>2016-10-12T08:55:01Z</time>
      </trkpt>
      <trkpt lat="43.78776" lon="2.19099">
        <ele>254</ele>
        <time>2016-10-12T08:55:16Z</time>
      </trkpt>
      <trkpt lat="43.78799" lon="2.19109">
        <ele>257</ele>
        <time>2016-10-12T08:55:32Z</time>
      </trkpt>
      <trkpt lat="43.78806" lon="2.19115">
        <ele>258</ele>
        <time>2016-10-12T08:55:45Z</time>
      </trkpt>
      <trkpt lat="43.78815" lon="2.19121">
        <ele>259</ele>
        <time>2016-10-12T08:56:01Z</time>
      </trkpt>
      <trkpt lat="43.78815" lon="2.19122">
        <ele>259</ele>
        <time>2016-10-12T08:56:24Z</time>
      </trkpt>
      <trkpt lat="43.78825" lon="2.19129">
        <ele>260</ele>
        <time>2016-10-12T08:56:48Z</time>
      </trkpt>
      <trkpt lat="43.78828" lon="2.19131">
        <ele>260</ele>
        <time>2016-10-12T08:57:09Z</time>
      </trkpt>
      <trkpt lat="43.78834" lon="2.19136">
        <ele>261</ele>
        <time>2016-10-12T08:57:56Z</time>
      </trkpt>
      <trkpt lat="43.78833" lon="2.19136">
        <ele>261</ele>
        <time>2016-10-12T08:58:17Z</time>
      </trkpt>
      <trkpt lat="43.78846" lon="2.1915">
        <ele>261</ele>
        <time>2016-10-12T08:58:34Z</time>
      </trkpt>
      <trkpt lat="43.78852" lon="2.19155">
        <ele>261</ele>
        <time>2016-10-12T08:58:40Z</time>
      </trkpt>
      <trkpt lat="43.78871" lon="2.1917">
        <ele>262</ele>
        <time>2016-10-12T08:58:59Z</time>
      </trkpt>
      <trkpt lat="43.78891" lon="2.19182">
        <ele>262</ele>
        <time>2016-10-12T08:59:17Z</time>
      </trkpt>
      <trkpt lat="43.78908" lon="2.19191">
        <ele>263</ele>
        <time>2016-10-12T08:59:33Z</time>
      </trkpt>
      <trkpt lat="43.78915" lon="2.19196">
        <ele>263</ele>
        <time>2016-10-12T08:59:41Z</time>
      </trkpt>
      <trkpt lat="43.78923" lon="2.19199">
        <ele>263</ele>
        <time>2016-10-12T08:59:47Z</time>
      </trkpt>
      <trkpt lat="43.78933" lon="2.19208">
        <ele>263</ele>
        <time>2016-10-12T08:59:58Z</time>
      </trkpt>
      <trkpt lat="43.78945" lon="2.1923">
        <ele>263</ele>
        <time>2016-10-12T09:00:14Z</time>
      </trkpt>
      <trkpt lat="43.7896" lon="2.19256">
        <ele>263</ele>
        <time>2016-10-12T09:00:33Z</time>
      </trkpt>
      <trkpt lat="43.78976" lon="2.19276">
        <ele>263</ele>
        <time>2016-10-12T09:00:50Z</time>
      </trkpt>
      <trkpt lat="43.78994" lon="2.19294">
        <ele>264</ele>
        <time>2016-10-12T09:01:06Z</time>
      </trkpt>
      <trkpt lat="43.79013" lon="2.19309">
        <ele>266</ele>
        <time>2016-10-12T09:01:23Z</time>
      </trkpt>
      <trkpt lat="43.79025" lon="2.19318">
        <ele>267</ele>
        <time>2016-10-12T09:01:37Z</time>
      </trkpt>
      <trkpt lat="43.79025" lon="2.19319">
        <ele>267</ele>
        <time>2016-10-12T09:01:57Z</time>
      </trkpt>
      <trkpt lat="43.79036" lon="2.19324">
        <ele>267</ele>
        <time>2016-10-12T09:02:33Z</time>
      </trkpt>
      <trkpt lat="43.79052" lon="2.19329">
        <ele>268</ele>
        <time>2016-10-12T09:02:47Z</time>
      </trkpt>
      <trkpt lat="43.79065" lon="2.19335">
        <ele>268</ele>
        <time>2016-10-12T09:02:59Z</time>
      </trkpt>
      <trkpt lat="43.79071" lon="2.19334">
        <ele>268</ele>
        <time>2016-10-12T09:03:13Z</time>
      </trkpt>
      <trkpt lat="43.79081" lon="2.19343">
        <ele>267</ele>
        <time>2016-10-12T09:03:31Z</time>
      </trkpt>
      <trkpt lat="43.79083" lon="2.19345">
        <ele>267</ele>
        <time>2016-10-12T09:03:34Z</time>
      </trkpt>
      <trkpt lat="43.79094" lon="2.19365">
        <ele>267</ele>
        <time>2016-10-12T09:03:51Z</time>
      </trkpt>
      <trkpt lat="43.791" lon="2.19387">
        <ele>267</ele>
        <time>2016-10-12T09:04:07Z</time>
      </trkpt>
      <trkpt lat="43.79107" lon="2.19412">
        <ele>266</ele>
        <time>2016-10-12T09:04:24Z</time>
      </trkpt>
      <trkpt lat="43.79112" lon="2.19438">
        <ele>266</ele>
        <time>2016-10-12T09:04:40Z</time>
      </trkpt>
      <trkpt lat="43.79114" lon="2.19461">
        <ele>266</ele>
        <time>2016-10-12T09:04:55Z</time>
      </trkpt>
      <trkpt lat="43.79114" lon="2.19491">
        <ele>266</ele>
        <time>2016-10-12T09:05:13Z</time>
      </trkpt>
      <trkpt lat="43.79113" lon="2.1952">
        <ele>267</ele>
        <time>2016-10-12T09:05:30Z</time>
      </trkpt>
      <trkpt lat="43.79111" lon="2.19541">
        <ele>267</ele>
        <time>2016-10-12T09:05:43Z</time>
      </trkpt>
      <trkpt lat="43.79111" lon="2.1957">
        <ele>268</ele>
        <time>2016-10-12T09:06:01Z</time>
      </trkpt>
      <trkpt lat="43.79112" lon="2.19584">
        <ele>269</ele>
        <time>2016-10-12T09:06:10Z</time>
      </trkpt>
      <trkpt lat="43.79114" lon="2.19609">
        <ele>270</ele>
        <time>2016-10-12T09:06:25Z</time>
      </trkpt>
      <trkpt lat="43.79114" lon="2.19634">
        <ele>271</ele>
        <time>2016-10-12T09:06:41Z</time>
      </trkpt>
      <trkpt lat="43.79114" lon="2.19645">
        <ele>272</ele>
        <time>2016-10-12T09:06:48Z</time>
      </trkpt>
      <trkpt lat="43.79111" lon="2.19669">
        <ele>274</ele>
        <time>2016-10-12T09:07:03Z</time>
      </trkpt>
      <trkpt lat="43.79111" lon="2.19675">
        <ele>275</ele>
        <time>2016-10-12T09:07:07Z</time>
      </trkpt>
      <trkpt lat="43.79109" lon="2.19698">
        <ele>277</ele>
        <time>2016-10-12T09:07:25Z</time>
      </trkpt>
      <trkpt lat="43.79111" lon="2.19719">
        <ele>280</ele>
        <time>2016-10-12T09:07:40Z</time>
      </trkpt>
      <trkpt lat="43.79113" lon="2.19744">
        <ele>282</ele>
        <time>2016-10-12T09:07:58Z</time>
      </trkpt>
      <trkpt lat="43.79117" lon="2.19764">
        <ele>284</ele>
        <time>2016-10-12T09:08:14Z</time>
      </trkpt>
      <trkpt lat="43.79121" lon="2.19786">
        <ele>286</ele>
        <time>2016-10-12T09:08:32Z</time>
      </trkpt>
      <trkpt lat="43.79126" lon="2.19808">
        <ele>288</ele>
        <time>2016-10-12T09:08:49Z</time>
      </trkpt>
      <trkpt lat="43.79137" lon="2.19828">
        <ele>290</ele>
        <time>2016-10-12T09:09:06Z</time>
      </trkpt>
      <trkpt lat="43.79138" lon="2.19831">
        <ele>291</ele>
        <time>2016-10-12T09:09:09Z</time>
      </trkpt>
      <trkpt lat="43.79145" lon="2.19849">
        <ele>293</ele>
        <time>2016-10-12T09:09:25Z</time>
      </trkpt>
      <trkpt lat="43.79148" lon="2.19854">
        <ele>294</ele>
        <time>2016-10-12T09:09:37Z</time>
      </trkpt>
      <trkpt lat="43.79152" lon="2.19863">
        <ele>295</ele>
        <time>2016-10-12T09:09:46Z</time>
      </trkpt>
      <trkpt lat="43.79159" lon="2.1988">
        <ele>297</ele>
        <time>2016-10-12T09:10:02Z</time>
      </trkpt>
      <trkpt lat="43.79167" lon="2.19897">
        <ele>298</ele>
        <time>2016-10-12T09:10:18Z</time>
      </trkpt>
      <trkpt lat="43.7917" lon="2.19912">
        <ele>299</ele>
        <time>2016-10-12T09:10:32Z</time>
      </trkpt>
      <trkpt lat="43.7917" lon="2.19919">
        <ele>299</ele>
        <time>2016-10-12T09:10:49Z</time>
      </trkpt>
      <trkpt lat="43.79171" lon="2.19923">
        <ele>300</ele>
        <time>2016-10-12T09:10:52Z</time>
      </trkpt>
      <trkpt lat="43.79171" lon="2.1994">
        <ele>301</ele>
        <time>2016-10-12T09:11:07Z</time>
      </trkpt>
      <trkpt lat="43.79172" lon="2.19959">
        <ele>301</ele>
        <time>2016-10-12T09:11:22Z</time>
      </trkpt>
      <trkpt lat="43.79172" lon="2.19968">
        <ele>301</ele>
        <time>2016-10-12T09:11:29Z</time>
      </trkpt>
      <trkpt lat="43.79173" lon="2.19972">
        <ele>302</ele>
        <time>2016-10-12T09:11:32Z</time>
      </trkpt>
      <trkpt lat="43.79172" lon="2.1999">
        <ele>302</ele>
        <time>2016-10-12T09:11:48Z</time>
      </trkpt>
      <trkpt lat="43.79172" lon="2.19992">
        <ele>302</ele>
        <time>2016-10-12T09:11:50Z</time>
      </trkpt>
      <trkpt lat="43.79169" lon="2.20006">
        <ele>302</ele>
        <time>2016-10-12T09:12:00Z</time>
      </trkpt>
      <trkpt lat="43.79165" lon="2.20016">
        <ele>302</ele>
        <time>2016-10-12T09:12:09Z</time>
      </trkpt>
      <trkpt lat="43.79161" lon="2.20045">
        <ele>302</ele>
        <time>2016-10-12T09:12:28Z</time>
      </trkpt>
      <trkpt lat="43.79159" lon="2.20062">
        <ele>302</ele>
        <time>2016-10-12T09:12:40Z</time>
      </trkpt>
      <trkpt lat="43.79157" lon="2.20084">
        <ele>302</ele>
        <time>2016-10-12T09:12:55Z</time>
      </trkpt>
      <trkpt lat="43.79156" lon="2.20097">
        <ele>302</ele>
        <time>2016-10-12T09:13:04Z</time>
      </trkpt>
      <trkpt lat="43.79154" lon="2.20109">
        <ele>302</ele>
        <time>2016-10-12T09:13:12Z</time>
      </trkpt>
      <trkpt lat="43.79153" lon="2.20117">
        <ele>302</ele>
        <time>2016-10-12T09:13:18Z</time>
      </trkpt>
      <trkpt lat="43.79151" lon="2.20139">
        <ele>302</ele>
        <time>2016-10-12T09:13:32Z</time>
      </trkpt>
      <trkpt lat="43.79147" lon="2.20171">
        <ele>301</ele>
        <time>2016-10-12T09:13:53Z</time>
      </trkpt>
      <trkpt lat="43.79143" lon="2.20196">
        <ele>301</ele>
        <time>2016-10-12T09:14:10Z</time>
      </trkpt>
      <trkpt lat="43.79142" lon="2.20227">
        <ele>301</ele>
        <time>2016-10-12T09:14:31Z</time>
      </trkpt>
      <trkpt lat="43.79142" lon="2.20256">
        <ele>302</ele>
        <time>2016-10-12T09:14:50Z</time>
      </trkpt>
      <trkpt lat="43.79142" lon="2.20271">
        <ele>302</ele>
        <time>2016-10-12T09:15:00Z</time>
      </trkpt>
      <trkpt lat="43.79144" lon="2.20285">
        <ele>302</ele>
        <time>2016-10-12T09:15:10Z</time>
      </trkpt>
      <trkpt lat="43.79147" lon="2.20316">
        <ele>302</ele>
        <time>2016-10-12T09:15:30Z</time>
      </trkpt>
      <trkpt lat="43.79153" lon="2.20346">
        <ele>302</ele>
        <time>2016-10-12T09:15:51Z</time>
      </trkpt>
      <trkpt lat="43.79154" lon="2.2036">
        <ele>302</ele>
        <time>2016-10-12T09:16:00Z</time>
      </trkpt>
      <trkpt lat="43.79154" lon="2.20385">
        <ele>302</ele>
        <time>2016-10-12T09:16:17Z</time>
      </trkpt>
      <trkpt lat="43.79153" lon="2.20409">
        <ele>301</ele>
        <time>2016-10-12T09:16:32Z</time>
      </trkpt>
      <trkpt lat="43.79151" lon="2.20442">
        <ele>301</ele>
        <time>2016-10-12T09:16:52Z</time>
      </trkpt>
      <trkpt lat="43.79151" lon="2.20469">
        <ele>301</ele>
        <time>2016-10-12T09:17:09Z</time>
      </trkpt>
      <trkpt lat="43.79147" lon="2.20503">
        <ele>301</ele>
        <time>2016-10-12T09:17:28Z</time>
      </trkpt>
      <trkpt lat="43.79142" lon="2.20536">
        <ele>301</ele>
        <time>2016-10-12T09:17:48Z</time>
      </trkpt>
      <trkpt lat="43.79141" lon="2.20568">
        <ele>301</ele>
        <time>2016-10-12T09:18:07Z</time>
      </trkpt>
      <trkpt lat="43.79137" lon="2.20596">
        <ele>300</ele>
        <time>2016-10-12T09:18:24Z</time>
      </trkpt>
      <trkpt lat="43.79133" lon="2.20626">
        <ele>300</ele>
        <time>2016-10-12T09:18:45Z</time>
      </trkpt>
      <trkpt lat="43.79133" lon="2.2063">
        <ele>300</ele>
        <time>2016-10-12T09:18:47Z</time>
      </trkpt>
      <trkpt lat="43.7913" lon="2.20653">
        <ele>300</ele>
        <time>2016-10-12T09:19:01Z</time>
      </trkpt>
      <trkpt lat="43.79127" lon="2.2067">
        <ele>300</ele>
        <time>2016-10-12T09:19:13Z</time>
      </trkpt>
      <trkpt lat="43.79126" lon="2.20678">
        <ele>299</ele>
        <time>2016-10-12T09:19:19Z</time>
      </trkpt>
      <trkpt lat="43.79123" lon="2.207">
        <ele>299</ele>
        <time>2016-10-12T09:19:35Z</time>
      </trkpt>
      <trkpt lat="43.79118" lon="2.20723">
        <ele>300</ele>
        <time>2016-10-12T09:19:51Z</time>
      </trkpt>
      <trkpt lat="43.79111" lon="2.20732">
        <ele>300</ele>
        <time>2016-10-12T09:20:06Z</time>
      </trkpt>
      <trkpt lat="43.79111" lon="2.20731">
        <ele>300</ele>
        <time>2016-10-12T09:20:39Z</time>
      </trkpt>
      <trkpt lat="43.79111" lon="2.20732">
        <ele>300</ele>
        <time>2016-10-12T09:20:54Z</time>
      </trkpt>
      <trkpt lat="43.79108" lon="2.20738">
        <ele>301</ele>
        <time>2016-10-12T09:21:06Z</time>
      </trkpt>
      <trkpt lat="43.79107" lon="2.20749">
        <ele>301</ele>
        <time>2016-10-12T09:21:27Z</time>
      </trkpt>
      <trkpt lat="43.79104" lon="2.20761">
        <ele>301</ele>
        <time>2016-10-12T09:21:42Z</time>
      </trkpt>
      <trkpt lat="43.79099" lon="2.20771">
        <ele>300</ele>
        <time>2016-10-12T09:21:50Z</time>
      </trkpt>
      <trkpt lat="43.79082" lon="2.20792">
        <ele>300</ele>
        <time>2016-10-12T09:22:10Z</time>
      </trkpt>
      <trkpt lat="43.79073" lon="2.20802">
        <ele>299</ele>
        <time>2016-10-12T09:22:24Z</time>
      </trkpt>
      <trkpt lat="43.79063" lon="2.20822">
        <ele>298</ele>
        <time>2016-10-12T09:22:40Z</time>
      </trkpt>
      <trkpt lat="43.79054" lon="2.20838">
        <ele>297</ele>
        <time>2016-10-12T09:22:52Z</time>
      </trkpt>
      <trkpt lat="43.79037" lon="2.20865">
        <ele>296</ele>
        <time>2016-10-12T09:23:10Z</time>
      </trkpt>
      <trkpt lat="43.79021" lon="2.20885">
        <ele>295</ele>
        <time>2016-10-12T09:23:26Z</time>
      </trkpt>
      <trkpt lat="43.79002" lon="2.20909">
        <ele>293</ele>
        <time>2016-10-12T09:23:47Z</time>
      </trkpt>
      <trkpt lat="43.78989" lon="2.20924">
        <ele>292</ele>
        <time>2016-10-12T09:24:01Z</time>
      </trkpt>
      <trkpt lat="43.78984" lon="2.20922">
        <ele>292</ele>
        <time>2016-10-12T09:24:07Z</time>
      </trkpt>
      <trkpt lat="43.78981" lon="2.20919">
        <ele>292</ele>
        <time>2016-10-12T09:24:10Z</time>
      </trkpt>
      <trkpt lat="43.78977" lon="2.20912">
        <ele>293</ele>
        <time>2016-10-12T09:24:16Z</time>
      </trkpt>
      <trkpt lat="43.78966" lon="2.20891">
        <ele>294</ele>
        <time>2016-10-12T09:24:33Z</time>
      </trkpt>
      <trkpt lat="43.78957" lon="2.20865">
        <ele>296</ele>
        <time>2016-10-12T09:24:52Z</time>
      </trkpt>
      <trkpt lat="43.78953" lon="2.20852">
        <ele>296</ele>
        <time>2016-10-12T09:25:01Z</time>
      </trkpt>
      <trkpt lat="43.78952" lon="2.20835">
        <ele>298</ele>
        <time>2016-10-12T09:25:12Z</time>
      </trkpt>
      <trkpt lat="43.78955" lon="2.20805">
        <ele>300</ele>
        <time>2016-10-12T09:25:31Z</time>
      </trkpt>
      <trkpt lat="43.78952" lon="2.20773">
        <ele>299</ele>
        <time>2016-10-12T09:25:51Z</time>
      </trkpt>
      <trkpt lat="43.78947" lon="2.20754">
        <ele>299</ele>
        <time>2016-10-12T09:26:06Z</time>
      </trkpt>
      <trkpt lat="43.78935" lon="2.20731">
        <ele>298</ele>
        <time>2016-10-12T09:26:24Z</time>
      </trkpt>
      <trkpt lat="43.78919" lon="2.20731">
        <ele>297</ele>
        <time>2016-10-12T09:26:39Z</time>
      </trkpt>
      <trkpt lat="43.78912" lon="2.2073">
        <ele>297</ele>
        <time>2016-10-12T09:26:45Z</time>
      </trkpt>
      <trkpt lat="43.789" lon="2.2073">
        <ele>296</ele>
        <time>2016-10-12T09:26:56Z</time>
      </trkpt>
      <trkpt lat="43.78881" lon="2.2073">
        <ele>296</ele>
        <time>2016-10-12T09:27:13Z</time>
      </trkpt>
      <trkpt lat="43.78856" lon="2.20733">
        <ele>295</ele>
        <time>2016-10-12T09:27:33Z</time>
      </trkpt>
      <trkpt lat="43.78836" lon="2.20733">
        <ele>294</ele>
        <time>2016-10-12T09:27:51Z</time>
      </trkpt>
      <trkpt lat="43.78818" lon="2.20733">
        <ele>294</ele>
        <time>2016-10-12T09:28:08Z</time>
      </trkpt>
      <trkpt lat="43.78798" lon="2.20731">
        <ele>293</ele>
        <time>2016-10-12T09:28:23Z</time>
      </trkpt>
      <trkpt lat="43.78778" lon="2.20731">
        <ele>293</ele>
        <time>2016-10-12T09:28:40Z</time>
      </trkpt>
      <trkpt lat="43.78761" lon="2.20728">
        <ele>293</ele>
        <time>2016-10-12T09:28:56Z</time>
      </trkpt>
      <trkpt lat="43.78756" lon="2.20727">
        <ele>293</ele>
        <time>2016-10-12T09:29:00Z</time>
      </trkpt>
      <trkpt lat="43.78741" lon="2.20729">
        <ele>293</ele>
        <time>2016-10-12T09:29:15Z</time>
      </trkpt>
      <trkpt lat="43.7872" lon="2.20735">
        <ele>293</ele>
        <time>2016-10-12T09:29:34Z</time>
      </trkpt>
      <trkpt lat="43.78713" lon="2.20737">
        <ele>293</ele>
        <time>2016-10-12T09:29:42Z</time>
      </trkpt>
      <trkpt lat="43.78691" lon="2.20747">
        <ele>292</ele>
        <time>2016-10-12T09:30:01Z</time>
      </trkpt>
      <trkpt lat="43.7868" lon="2.20751">
        <ele>292</ele>
        <time>2016-10-12T09:30:11Z</time>
      </trkpt>
      <trkpt lat="43.7867" lon="2.20755">
        <ele>292</ele>
        <time>2016-10-12T09:30:20Z</time>
      </trkpt>
      <trkpt lat="43.78653" lon="2.20756">
        <ele>293</ele>
        <time>2016-10-12T09:30:36Z</time>
      </trkpt>
      <trkpt lat="43.78637" lon="2.20754">
        <ele>294</ele>
        <time>2016-10-12T09:30:52Z</time>
      </trkpt>
      <trkpt lat="43.78626" lon="2.20753">
        <ele>295</ele>
        <time>2016-10-12T09:31:00Z</time>
      </trkpt>
      <trkpt lat="43.78621" lon="2.20755">
        <ele>294</ele>
        <time>2016-10-12T09:31:04Z</time>
      </trkpt>
      <trkpt lat="43.78598" lon="2.20767">
        <ele>293</ele>
        <time>2016-10-12T09:31:21Z</time>
      </trkpt>
      <trkpt lat="43.78584" lon="2.20777">
        <ele>293</ele>
        <time>2016-10-12T09:31:34Z</time>
      </trkpt>
      <trkpt lat="43.78569" lon="2.20793">
        <ele>293</ele>
        <time>2016-10-12T09:31:50Z</time>
      </trkpt>
      <trkpt lat="43.78555" lon="2.20804">
        <ele>293</ele>
        <time>2016-10-12T09:32:05Z</time>
      </trkpt>
      <trkpt lat="43.7854" lon="2.20818">
        <ele>294</ele>
        <time>2016-10-12T09:32:19Z</time>
      </trkpt>
      <trkpt lat="43.78523" lon="2.2083">
        <ele>296</ele>
        <time>2016-10-12T09:32:36Z</time>
      </trkpt>
      <trkpt lat="43.78511" lon="2.2084">
        <ele>295</ele>
        <time>2016-10-12T09:32:49Z</time>
      </trkpt>
      <trkpt lat="43.78499" lon="2.2085">
        <ele>295</ele>
        <time>2016-10-12T09:33:04Z</time>
      </trkpt>
      <trkpt lat="43.78497" lon="2.20849">
        <ele>295</ele>
        <time>2016-10-12T09:33:13Z</time>
      </trkpt>
      <trkpt lat="43.78479" lon="2.20848">
        <ele>294</ele>
        <time>2016-10-12T09:33:31Z</time>
      </trkpt>
      <trkpt lat="43.78473" lon="2.20855">
        <ele>294</ele>
        <time>2016-10-12T09:33:40Z</time>
      </trkpt>
      <trkpt lat="43.78467" lon="2.20861">
        <ele>293</ele>
        <time>2016-10-12T09:33:46Z</time>
      </trkpt>
      <trkpt lat="43.78465" lon="2.20876">
        <ele>294</ele>
        <time>2016-10-12T09:33:55Z</time>
      </trkpt>
      <trkpt lat="43.78455" lon="2.20906">
        <ele>295</ele>
        <time>2016-10-12T09:34:16Z</time>
      </trkpt>
      <trkpt lat="43.78441" lon="2.20923">
        <ele>294</ele>
        <time>2016-10-12T09:34:31Z</time>
      </trkpt>
      <trkpt lat="43.7843" lon="2.20932">
        <ele>294</ele>
        <time>2016-10-12T09:34:43Z</time>
      </trkpt>
      <trkpt lat="43.78426" lon="2.20937">
        <ele>294</ele>
        <time>2016-10-12T09:34:48Z</time>
      </trkpt>
      <trkpt lat="43.78409" lon="2.20956">
        <ele>293</ele>
        <time>2016-10-12T09:35:06Z</time>
      </trkpt>
      <trkpt lat="43.78393" lon="2.20976">
        <ele>292</ele>
        <time>2016-10-12T09:35:25Z</time>
      </trkpt>
      <trkpt lat="43.7838" lon="2.20995">
        <ele>293</ele>
        <time>2016-10-12T09:35:41Z</time>
      </trkpt>
      <trkpt lat="43.78369" lon="2.21016">
        <ele>293</ele>
        <time>2016-10-12T09:35:58Z</time>
      </trkpt>
      <trkpt lat="43.78363" lon="2.21027">
        <ele>292</ele>
        <time>2016-10-12T09:36:07Z</time>
      </trkpt>
      <trkpt lat="43.78352" lon="2.21049">
        <ele>292</ele>
        <time>2016-10-12T09:36:23Z</time>
      </trkpt>
      <trkpt lat="43.78341" lon="2.21074">
        <ele>291</ele>
        <time>2016-10-12T09:36:42Z</time>
      </trkpt>
      <trkpt lat="43.78324" lon="2.211">
        <ele>289</ele>
        <time>2016-10-12T09:37:03Z</time>
      </trkpt>
      <trkpt lat="43.78308" lon="2.21122">
        <ele>288</ele>
        <time>2016-10-12T09:37:21Z</time>
      </trkpt>
      <trkpt lat="43.78291" lon="2.21145">
        <ele>287</ele>
        <time>2016-10-12T09:37:40Z</time>
      </trkpt>
      <trkpt lat="43.78281" lon="2.21173">
        <ele>285</ele>
        <time>2016-10-12T09:37:59Z</time>
      </trkpt>
      <trkpt lat="43.7827" lon="2.21199">
        <ele>284</ele>
        <time>2016-10-12T09:38:17Z</time>
      </trkpt>
      <trkpt lat="43.78259" lon="2.21223">
        <ele>284</ele>
        <time>2016-10-12T09:38:34Z</time>
      </trkpt>
      <trkpt lat="43.7826" lon="2.21237">
        <ele>284</ele>
        <time>2016-10-12T09:38:44Z</time>
      </trkpt>
      <trkpt lat="43.78264" lon="2.21257">
        <ele>283</ele>
        <time>2016-10-12T09:38:59Z</time>
      </trkpt>
      <trkpt lat="43.78265" lon="2.21268">
        <ele>282</ele>
        <time>2016-10-12T09:39:06Z</time>
      </trkpt>
      <trkpt lat="43.78269" lon="2.21295">
        <ele>281</ele>
        <time>2016-10-12T09:39:24Z</time>
      </trkpt>
      <trkpt lat="43.78273" lon="2.21323">
        <ele>280</ele>
        <time>2016-10-12T09:39:43Z</time>
      </trkpt>
      <trkpt lat="43.78275" lon="2.21341">
        <ele>280</ele>
        <time>2016-10-12T09:39:56Z</time>
      </trkpt>
      <trkpt lat="43.78275" lon="2.21366">
        <ele>279</ele>
        <time>2016-10-12T09:40:11Z</time>
      </trkpt>
      <trkpt lat="43.7828" lon="2.21388">
        <ele>278</ele>
        <time>2016-10-12T09:40:28Z</time>
      </trkpt>
      <trkpt lat="43.78285" lon="2.2141">
        <ele>277</ele>
        <time>2016-10-12T09:40:44Z</time>
      </trkpt>
      <trkpt lat="43.78292" lon="2.21424">
        <ele>275</ele>
        <time>2016-10-12T09:40:57Z</time>
      </trkpt>
      <trkpt lat="43.78301" lon="2.21447">
        <ele>273</ele>
        <time>2016-10-12T09:41:13Z</time>
      </trkpt>
      <trkpt lat="43.78308" lon="2.21472">
        <ele>270</ele>
        <time>2016-10-12T09:41:26Z</time>
      </trkpt>
      <trkpt lat="43.78315" lon="2.21494">
        <ele>268</ele>
        <time>2016-10-12T09:41:43Z</time>
      </trkpt>
      <trkpt lat="43.78321" lon="2.21508">
        <ele>266</ele>
        <time>2016-10-12T09:41:59Z</time>
      </trkpt>
      <trkpt lat="43.78333" lon="2.2152">
        <ele>263</ele>
        <time>2016-10-12T09:42:13Z</time>
      </trkpt>
      <trkpt lat="43.78351" lon="2.21531">
        <ele>260</ele>
        <time>2016-10-12T09:42:30Z</time>
      </trkpt>
      <trkpt lat="43.78364" lon="2.21543">
        <ele>257</ele>
        <time>2016-10-12T09:42:43Z</time>
      </trkpt>
      <trkpt lat="43.78378" lon="2.21561">
        <ele>253</ele>
        <time>2016-10-12T09:43:02Z</time>
      </trkpt>
      <trkpt lat="43.78375" lon="2.21576">
        <ele>253</ele>
        <time>2016-10-12T09:43:19Z</time>
      </trkpt>
      <trkpt lat="43.78376" lon="2.21589">
        <ele>252</ele>
        <time>2016-10-12T09:43:37Z</time>
      </trkpt>
      <trkpt lat="43.78382" lon="2.2159">
        <ele>251</ele>
        <time>2016-10-12T09:43:53Z</time>
      </trkpt>
      <trkpt lat="43.78403" lon="2.21595">
        <ele>247</ele>
        <time>2016-10-12T09:44:08Z</time>
      </trkpt>
      <trkpt lat="43.78425" lon="2.21603">
        <ele>242</ele>
        <time>2016-10-12T09:44:24Z</time>
      </trkpt>
      <trkpt lat="43.78439" lon="2.21612">
        <ele>239</ele>
        <time>2016-10-12T09:44:39Z</time>
      </trkpt>
      <trkpt lat="43.78451" lon="2.2162">
        <ele>239</ele>
        <time>2016-10-12T09:44:55Z</time>
      </trkpt>
      <trkpt lat="43.78463" lon="2.21638">
        <ele>238</ele>
        <time>2016-10-12T09:45:10Z</time>
      </trkpt>
      <trkpt lat="43.78475" lon="2.21653">
        <ele>237</ele>
        <time>2016-10-12T09:45:24Z</time>
      </trkpt>
      <trkpt lat="43.78483" lon="2.21671">
        <ele>236</ele>
        <time>2016-10-12T09:45:40Z</time>
      </trkpt>
      <trkpt lat="43.78486" lon="2.21676">
        <ele>236</ele>
        <time>2016-10-12T09:45:44Z</time>
      </trkpt>
      <trkpt lat="43.78492" lon="2.21692">
        <ele>235</ele>
        <time>2016-10-12T09:45:58Z</time>
      </trkpt>
      <trkpt lat="43.78499" lon="2.21704">
        <ele>235</ele>
        <time>2016-10-12T09:46:10Z</time>
      </trkpt>
      <trkpt lat="43.78511" lon="2.21722">
        <ele>234</ele>
        <time>2016-10-12T09:46:26Z</time>
      </trkpt>
      <trkpt lat="43.78522" lon="2.21734">
        <ele>233</ele>
        <time>2016-10-12T09:46:42Z</time>
      </trkpt>
      <trkpt lat="43.78541" lon="2.21749">
        <ele>234</ele>
        <time>2016-10-12T09:46:59Z</time>
      </trkpt>
      <trkpt lat="43.78555" lon="2.21769">
        <ele>235</ele>
        <time>2016-10-12T09:47:19Z</time>
      </trkpt>
      <trkpt lat="43.78566" lon="2.21785">
        <ele>236</ele>
        <time>2016-10-12T09:47:38Z</time>
      </trkpt>
      <trkpt lat="43.7858" lon="2.21799">
        <ele>237</ele>
        <time>2016-10-12T09:47:56Z</time>
      </trkpt>
      <trkpt lat="43.78589" lon="2.21806">
        <ele>238</ele>
        <time>2016-10-12T09:48:06Z</time>
      </trkpt>
      <trkpt lat="43.78602" lon="2.21813">
        <ele>240</ele>
        <time>2016-10-12T09:48:23Z</time>
      </trkpt>
      <trkpt lat="43.78618" lon="2.2182">
        <ele>242</ele>
        <time>2016-10-12T09:48:40Z</time>
      </trkpt>
      <trkpt lat="43.78631" lon="2.21824">
        <ele>243</ele>
        <time>2016-10-12T09:48:55Z</time>
      </trkpt>
      <trkpt lat="43.78645" lon="2.21829">
        <ele>245</ele>
        <time>2016-10-12T09:49:11Z</time>
      </trkpt>
      <trkpt lat="43.78656" lon="2.2183">
        <ele>247</ele>
        <time>2016-10-12T09:49:28Z</time>
      </trkpt>
      <trkpt lat="43.78665" lon="2.21829">
        <ele>248</ele>
        <time>2016-10-12T09:49:42Z</time>
      </trkpt>
      <trkpt lat="43.78675" lon="2.2183">
        <ele>249</ele>
        <time>2016-10-12T09:49:57Z</time>
      </trkpt>
      <trkpt lat="43.78684" lon="2.2183">
        <ele>250</ele>
        <time>2016-10-12T09:50:14Z</time>
      </trkpt>
      <trkpt lat="43.78696" lon="2.21831">
        <ele>252</ele>
        <time>2016-10-12T09:50:28Z</time>
      </trkpt>
      <trkpt lat="43.78709" lon="2.21836">
        <ele>255</ele>
        <time>2016-10-12T09:50:45Z</time>
      </trkpt>
      <trkpt lat="43.78721" lon="2.2184">
        <ele>257</ele>
        <time>2016-10-12T09:51:01Z</time>
      </trkpt>
      <trkpt lat="43.78732" lon="2.21845">
        <ele>258</ele>
        <time>2016-10-12T09:51:16Z</time>
      </trkpt>
      <trkpt lat="43.78747" lon="2.21854">
        <ele>261</ele>
        <time>2016-10-12T09:51:34Z</time>
      </trkpt>
      <trkpt lat="43.78759" lon="2.21864">
        <ele>264</ele>
        <time>2016-10-12T09:51:50Z</time>
      </trkpt>
      <trkpt lat="43.7877" lon="2.21873">
        <ele>266</ele>
        <time>2016-10-12T09:52:04Z</time>
      </trkpt>
      <trkpt lat="43.78788" lon="2.21876">
        <ele>267</ele>
        <time>2016-10-12T09:52:22Z</time>
      </trkpt>
      <trkpt lat="43.78794" lon="2.21873">
        <ele>267</ele>
        <time>2016-10-12T09:52:29Z</time>
      </trkpt>
      <trkpt lat="43.78809" lon="2.21868">
        <ele>268</ele>
        <time>2016-10-12T09:52:45Z</time>
      </trkpt>
      <trkpt lat="43.78817" lon="2.21868">
        <ele>268</ele>
        <time>2016-10-12T09:52:59Z</time>
      </trkpt>
      <trkpt lat="43.78827" lon="2.21875">
        <ele>270</ele>
        <time>2016-10-12T09:53:14Z</time>
      </trkpt>
      <trkpt lat="43.78835" lon="2.21892">
        <ele>273</ele>
        <time>2016-10-12T09:53:28Z</time>
      </trkpt>
      <trkpt lat="43.78827" lon="2.21911">
        <ele>274</ele>
        <time>2016-10-12T09:53:45Z</time>
      </trkpt>
      <trkpt lat="43.78824" lon="2.21914">
        <ele>275</ele>
        <time>2016-10-12T09:54:03Z</time>
      </trkpt>
      <trkpt lat="43.78823" lon="2.21915">
        <ele>275</ele>
        <time>2016-10-12T09:54:26Z</time>
      </trkpt>
      <trkpt lat="43.78823" lon="2.21916">
        <ele>275</ele>
        <time>2016-10-12T09:54:56Z</time>
      </trkpt>
      <trkpt lat="43.78822" lon="2.2192">
        <ele>275</ele>
        <time>2016-10-12T09:55:18Z</time>
      </trkpt>
      <trkpt lat="43.78828" lon="2.2193">
        <ele>277</ele>
        <time>2016-10-12T09:55:42Z</time>
      </trkpt>
      <trkpt lat="43.78833" lon="2.21946">
        <ele>279</ele>
        <time>2016-10-12T09:55:59Z</time>
      </trkpt>
      <trkpt lat="43.78828" lon="2.21959">
        <ele>281</ele>
        <time>2016-10-12T09:56:13Z</time>
      </trkpt>
      <trkpt lat="43.78824" lon="2.21972">
        <ele>282</ele>
        <time>2016-10-12T09:56:26Z</time>
      </trkpt>
      <trkpt lat="43.7882" lon="2.2199">
        <ele>284</ele>
        <time>2016-10-12T09:56:41Z</time>
      </trkpt>
      <trkpt lat="43.78819" lon="2.22">
        <ele>285</ele>
        <time>2016-10-12T09:56:57Z</time>
      </trkpt>
      <trkpt lat="43.78818" lon="2.22011">
        <ele>287</ele>
        <time>2016-10-12T09:57:12Z</time>
      </trkpt>
      <trkpt lat="43.78817" lon="2.22027">
        <ele>288</ele>
        <time>2016-10-12T09:57:26Z</time>
      </trkpt>
      <trkpt lat="43.78817" lon="2.22045">
        <ele>291</ele>
        <time>2016-10-12T09:57:44Z</time>
      </trkpt>
      <trkpt lat="43.78821" lon="2.22059">
        <ele>292</ele>
        <time>2016-10-12T09:58:00Z</time>
      </trkpt>
      <trkpt lat="43.78828" lon="2.22072">
        <ele>294</ele>
        <time>2016-10-12T09:58:15Z</time>
      </trkpt>
      <trkpt lat="43.78829" lon="2.22074">
        <ele>294</ele>
        <time>2016-10-12T09:58:17Z</time>
      </trkpt>
      <trkpt lat="43.78834" lon="2.22092">
        <ele>296</ele>
        <time>2016-10-12T09:58:33Z</time>
      </trkpt>
      <trkpt lat="43.78835" lon="2.22097">
        <ele>296</ele>
        <time>2016-10-12T09:58:38Z</time>
      </trkpt>
      <trkpt lat="43.78836" lon="2.2211">
        <ele>297</ele>
        <time>2016-10-12T09:58:48Z</time>
      </trkpt>
      <trkpt lat="43.7884" lon="2.22131">
        <ele>298</ele>
        <time>2016-10-12T09:59:04Z</time>
      </trkpt>
      <trkpt lat="43.78832" lon="2.22137">
        <ele>297</ele>
        <time>2016-10-12T09:59:18Z</time>
      </trkpt>
      <trkpt lat="43.78829" lon="2.22139">
        <ele>297</ele>
        <time>2016-10-12T09:59:20Z</time>
      </trkpt>
      <trkpt lat="43.78809" lon="2.2215">
        <ele>295</ele>
        <time>2016-10-12T09:59:38Z</time>
      </trkpt>
      <trkpt lat="43.78789" lon="2.22157">
        <ele>294</ele>
        <time>2016-10-12T09:59:57Z</time>
      </trkpt>
      <trkpt lat="43.7877" lon="2.22165">
        <ele>293</ele>
        <time>2016-10-12T10:00:16Z</time>
      </trkpt>
      <trkpt lat="43.78752" lon="2.22172">
        <ele>292</ele>
        <time>2016-10-12T10:00:35Z</time>
      </trkpt>
      <trkpt lat="43.78739" lon="2.22174">
        <ele>292</ele>
        <time>2016-10-12T10:00:50Z</time>
      </trkpt>
      <trkpt lat="43.78724" lon="2.22178">
        <ele>291</ele>
        <time>2016-10-12T10:01:04Z</time>
      </trkpt>
      <trkpt lat="43.78705" lon="2.22182">
        <ele>291</ele>
        <time>2016-10-12T10:01:22Z</time>
      </trkpt>
      <trkpt lat="43.7869" lon="2.22188">
        <ele>290</ele>
        <time>2016-10-12T10:01:40Z</time>
      </trkpt>
      <trkpt lat="43.7867" lon="2.22195">
        <ele>289</ele>
        <time>2016-10-12T10:02:00Z</time>
      </trkpt>
      <trkpt lat="43.78655" lon="2.22202">
        <ele>289</ele>
        <time>2016-10-12T10:02:16Z</time>
      </trkpt>
      <trkpt lat="43.78642" lon="2.22208">
        <ele>288</ele>
        <time>2016-10-12T10:02:31Z</time>
      </trkpt>
      <trkpt lat="43.78629" lon="2.22214">
        <ele>287</ele>
        <time>2016-10-12T10:02:44Z</time>
      </trkpt>
      <trkpt lat="43.78609" lon="2.22223">
        <ele>287</ele>
        <time>2016-10-12T10:03:02Z</time>
      </trkpt>
      <trkpt lat="43.78596" lon="2.22231">
        <ele>286</ele>
        <time>2016-10-12T10:03:14Z</time>
      </trkpt>
      <trkpt lat="43.78587" lon="2.22235">
        <ele>286</ele>
        <time>2016-10-12T10:03:23Z</time>
      </trkpt>
      <trkpt lat="43.78575" lon="2.22239">
        <ele>286</ele>
        <time>2016-10-12T10:03:35Z</time>
      </trkpt>
      <trkpt lat="43.78555" lon="2.22246">
        <ele>285</ele>
        <time>2016-10-12T10:03:54Z</time>
      </trkpt>
      <trkpt lat="43.78533" lon="2.2225">
        <ele>284</ele>
        <time>2016-10-12T10:04:15Z</time>
      </trkpt>
      <trkpt lat="43.78518" lon="2.22258">
        <ele>283</ele>
        <time>2016-10-12T10:04:30Z</time>
      </trkpt>
      <trkpt lat="43.78504" lon="2.22271">
        <ele>282</ele>
        <time>2016-10-12T10:04:46Z</time>
      </trkpt>
      <trkpt lat="43.78484" lon="2.22277">
        <ele>282</ele>
        <time>2016-10-12T10:05:01Z</time>
      </trkpt>
      <trkpt lat="43.7847" lon="2.22277">
        <ele>282</ele>
        <time>2016-10-12T10:05:14Z</time>
      </trkpt>
      <trkpt lat="43.78451" lon="2.22273">
        <ele>281</ele>
        <time>2016-10-12T10:05:32Z</time>
      </trkpt>
      <trkpt lat="43.78433" lon="2.2227">
        <ele>281</ele>
        <time>2016-10-12T10:05:50Z</time>
      </trkpt>
      <trkpt lat="43.78421" lon="2.22269">
        <ele>280</ele>
        <time>2016-10-12T10:06:03Z</time>
      </trkpt>
      <trkpt lat="43.78407" lon="2.22271">
        <ele>280</ele>
        <time>2016-10-12T10:06:15Z</time>
      </trkpt>
      <trkpt lat="43.78395" lon="2.22273">
        <ele>280</ele>
        <time>2016-10-12T10:06:26Z</time>
      </trkpt>
      <trkpt lat="43.78385" lon="2.22283">
        <ele>279</ele>
        <time>2016-10-12T10:06:37Z</time>
      </trkpt>
      <trkpt lat="43.78373" lon="2.22299">
        <ele>278</ele>
        <time>2016-10-12T10:06:50Z</time>
      </trkpt>
      <trkpt lat="43.78365" lon="2.22301">
        <ele>277</ele>
        <time>2016-10-12T10:06:59Z</time>
      </trkpt>
      <trkpt lat="43.78349" lon="2.22302">
        <ele>275</ele>
        <time>2016-10-12T10:07:14Z</time>
      </trkpt>
      <trkpt lat="43.78337" lon="2.22318">
        <ele>271</ele>
        <time>2016-10-12T10:07:32Z</time>
      </trkpt>
      <trkpt lat="43.78321" lon="2.22324">
        <ele>268</ele>
        <time>2016-10-12T10:07:47Z</time>
      </trkpt>
      <trkpt lat="43.78308" lon="2.22333">
        <ele>265</ele>
        <time>2016-10-12T10:08:03Z</time>
      </trkpt>
      <trkpt lat="43.78297" lon="2.22341">
        <ele>262</ele>
        <time>2016-10-12T10:08:20Z</time>
      </trkpt>
      <trkpt lat="43.78288" lon="2.22358">
        <ele>258</ele>
        <time>2016-10-12T10:08:36Z</time>
      </trkpt>
      <trkpt lat="43.78277" lon="2.22366">
        <ele>256</ele>
        <time>2016-10-12T10:08:50Z</time>
      </trkpt>
      <trkpt lat="43.78266" lon="2.22366">
        <ele>254</ele>
        <time>2016-10-12T10:09:02Z</time>
      </trkpt>
      <trkpt lat="43.78249" lon="2.22368">
        <ele>251</ele>
        <time>2016-10-12T10:09:17Z</time>
      </trkpt>
      <trkpt lat="43.78244" lon="2.22365">
        <ele>250</ele>
        <time>2016-10-12T10:09:22Z</time>
      </trkpt>
      <trkpt lat="43.78227" lon="2.22354">
        <ele>246</ele>
        <time>2016-10-12T10:09:38Z</time>
      </trkpt>
      <trkpt lat="43.78215" lon="2.2235">
        <ele>244</ele>
        <time>2016-10-12T10:09:48Z</time>
      </trkpt>
      <trkpt lat="43.78204" lon="2.2235">
        <ele>241</ele>
        <time>2016-10-12T10:10:03Z</time>
      </trkpt>
      <trkpt lat="43.78194" lon="2.22359">
        <ele>238</ele>
        <time>2016-10-12T10:10:16Z</time>
      </trkpt>
      <trkpt lat="43.78193" lon="2.22363">
        <ele>238</ele>
        <time>2016-10-12T10:10:19Z</time>
      </trkpt>
      <trkpt lat="43.78192" lon="2.22364">
        <ele>238</ele>
        <time>2016-10-12T10:10:20Z</time>
      </trkpt>
      <trkpt lat="43.78188" lon="2.22366">
        <ele>237</ele>
        <time>2016-10-12T10:10:27Z</time>
      </trkpt>
      <trkpt lat="43.78175" lon="2.22378">
        <ele>232</ele>
        <time>2016-10-12T10:10:42Z</time>
      </trkpt>
      <trkpt lat="43.78166" lon="2.22387">
        <ele>229</ele>
        <time>2016-10-12T10:10:55Z</time>
      </trkpt>
      <trkpt lat="43.78157" lon="2.22393">
        <ele>227</ele>
        <time>2016-10-12T10:11:07Z</time>
      </trkpt>
      <trkpt lat="43.7815" lon="2.22395">
        <ele>226</ele>
        <time>2016-10-12T10:11:18Z</time>
      </trkpt>
      <trkpt lat="43.78141" lon="2.22393">
        <ele>224</ele>
        <time>2016-10-12T10:11:29Z</time>
      </trkpt>
      <trkpt lat="43.78133" lon="2.22391">
        <ele>223</ele>
        <time>2016-10-12T10:11:38Z</time>
      </trkpt>
      <trkpt lat="43.78119" lon="2.22391">
        <ele>221</ele>
        <time>2016-10-12T10:11:54Z</time>
      </trkpt>
      <trkpt lat="43.78106" lon="2.22384">
        <ele>221</ele>
        <time>2016-10-12T10:12:08Z</time>
      </trkpt>
      <trkpt lat="43.78095" lon="2.22382">
        <ele>220</ele>
        <time>2016-10-12T10:12:21Z</time>
      </trkpt>
      <trkpt lat="43.78094" lon="2.22381">
        <ele>220</ele>
        <time>2016-10-12T10:12:22Z</time>
      </trkpt>
      <trkpt lat="43.78086" lon="2.22389">
        <ele>219</ele>
        <time>2016-10-12T10:12:36Z</time>
      </trkpt>
      <trkpt lat="43.78079" lon="2.22385">
        <ele>218</ele>
        <time>2016-10-12T10:12:53Z</time>
      </trkpt>
      <trkpt lat="43.78068" lon="2.22379">
        <ele>218</ele>
        <time>2016-10-12T10:13:07Z</time>
      </trkpt>
      <trkpt lat="43.78053" lon="2.22372">
        <ele>218</ele>
        <time>2016-10-12T10:13:23Z</time>
      </trkpt>
      <trkpt lat="43.78036" lon="2.22377">
        <ele>218</ele>
        <time>2016-10-12T10:13:40Z</time>
      </trkpt>
      <trkpt lat="43.78024" lon="2.22388">
        <ele>218</ele>
        <time>2016-10-12T10:13:56Z</time>
      </trkpt>
      <trkpt lat="43.78017" lon="2.22397">
        <ele>218</ele>
        <time>2016-10-12T10:14:05Z</time>
      </trkpt>
      <trkpt lat="43.7801" lon="2.22406">
        <ele>218</ele>
        <time>2016-10-12T10:14:15Z</time>
      </trkpt>
      <trkpt lat="43.77997" lon="2.22425">
        <ele>217</ele>
        <time>2016-10-12T10:14:29Z</time>
      </trkpt>
      <trkpt lat="43.77992" lon="2.22431">
        <ele>217</ele>
        <time>2016-10-12T10:14:34Z</time>
      </trkpt>
      <trkpt lat="43.7797" lon="2.22443">
        <ele>218</ele>
        <time>2016-10-12T10:14:54Z</time>
      </trkpt>
      <trkpt lat="43.77961" lon="2.22458">
        <ele>218</ele>
        <time>2016-10-12T10:15:10Z</time>
      </trkpt>
      <trkpt lat="43.7796" lon="2.22459">
        <ele>218</ele>
        <time>2016-10-12T10:15:11Z</time>
      </trkpt>
      <trkpt lat="43.77955" lon="2.22482">
        <ele>218</ele>
        <time>2016-10-12T10:15:27Z</time>
      </trkpt>
      <trkpt lat="43.77944" lon="2.22508">
        <ele>219</ele>
        <time>2016-10-12T10:15:45Z</time>
      </trkpt>
      <trkpt lat="43.77938" lon="2.22517">
        <ele>219</ele>
        <time>2016-10-12T10:15:54Z</time>
      </trkpt>
      <trkpt lat="43.77923" lon="2.22535">
        <ele>219</ele>
        <time>2016-10-12T10:16:12Z</time>
      </trkpt>
      <trkpt lat="43.77901" lon="2.22548">
        <ele>219</ele>
        <time>2016-10-12T10:16:30Z</time>
      </trkpt>
      <trkpt lat="43.77877" lon="2.22555">
        <ele>219</ele>
        <time>2016-10-12T10:16:50Z</time>
      </trkpt>
      <trkpt lat="43.7786" lon="2.22557">
        <ele>219</ele>
        <time>2016-10-12T10:17:08Z</time>
      </trkpt>
      <trkpt lat="43.77858" lon="2.22558">
        <ele>219</ele>
        <time>2016-10-12T10:17:10Z</time>
      </trkpt>
      <trkpt lat="43.77842" lon="2.22563">
        <ele>219</ele>
        <time>2016-10-12T10:17:27Z</time>
      </trkpt>
      <trkpt lat="43.77815" lon="2.22575">
        <ele>220</ele>
        <time>2016-10-12T10:17:48Z</time>
      </trkpt>
      <trkpt lat="43.77802" lon="2.22581">
        <ele>220</ele>
        <time>2016-10-12T10:18:03Z</time>
      </trkpt>
      <trkpt lat="43.77793" lon="2.22594">
        <ele>220</ele>
        <time>2016-10-12T10:18:18Z</time>
      </trkpt>
      <trkpt lat="43.77784" lon="2.22619">
        <ele>221</ele>
        <time>2016-10-12T10:18:35Z</time>
      </trkpt>
      <trkpt lat="43.77779" lon="2.2262">
        <ele>220</ele>
        <time>2016-10-12T10:18:51Z</time>
      </trkpt>
      <trkpt lat="43.77771" lon="2.22619">
        <ele>220</ele>
        <time>2016-10-12T10:19:03Z</time>
      </trkpt>
      <trkpt lat="43.77763" lon="2.22613">
        <ele>220</ele>
        <time>2016-10-12T10:19:10Z</time>
      </trkpt>
      <trkpt lat="43.77761" lon="2.2261">
        <ele>220</ele>
        <time>2016-10-12T10:19:13Z</time>
      </trkpt>
      <trkpt lat="43.77757" lon="2.22606">
        <ele>220</ele>
        <time>2016-10-12T10:19:17Z</time>
      </trkpt>
      <trkpt lat="43.77735" lon="2.22593">
        <ele>220</ele>
        <time>2016-10-12T10:19:38Z</time>
      </trkpt>
      <trkpt lat="43.77715" lon="2.22575">
        <ele>219</ele>
        <time>2016-10-12T10:19:56Z</time>
      </trkpt>
      <trkpt lat="43.777" lon="2.2256">
        <ele>220</ele>
        <time>2016-10-12T10:20:14Z</time>
      </trkpt>
      <trkpt lat="43.77693" lon="2.22555">
        <ele>220</ele>
        <time>2016-10-12T10:20:36Z</time>
      </trkpt>
      <trkpt lat="43.77693" lon="2.22555">
        <ele>220</ele>
        <time>2016-10-12T10:21:09Z</time>
      </trkpt>
      <trkpt lat="43.77688" lon="2.22552">
        <ele>220</ele>
        <time>2016-10-12T10:21:40Z</time>
      </trkpt>
      <trkpt lat="43.7768" lon="2.22549">
        <ele>220</ele>
        <time>2016-10-12T10:21:47Z</time>
      </trkpt>
      <trkpt lat="43.77658" lon="2.2254">
        <ele>221</ele>
        <time>2016-10-12T10:22:06Z</time>
      </trkpt>
      <trkpt lat="43.77632" lon="2.22541">
        <ele>221</ele>
        <time>2016-10-12T10:22:29Z</time>
      </trkpt>
      <trkpt lat="43.77614" lon="2.22554">
        <ele>222</ele>
        <time>2016-10-12T10:22:48Z</time>
      </trkpt>
      <trkpt lat="43.77596" lon="2.22572">
        <ele>223</ele>
        <time>2016-10-12T10:23:06Z</time>
      </trkpt>
      <trkpt lat="43.7758" lon="2.22594">
        <ele>224</ele>
        <time>2016-10-12T10:23:26Z</time>
      </trkpt>
      <trkpt lat="43.77564" lon="2.22615">
        <ele>225</ele>
        <time>2016-10-12T10:23:42Z</time>
      </trkpt>
      <trkpt lat="43.7755" lon="2.22645">
        <ele>225</ele>
        <time>2016-10-12T10:24:03Z</time>
      </trkpt>
      <trkpt lat="43.77536" lon="2.22669">
        <ele>226</ele>
        <time>2016-10-12T10:24:20Z</time>
      </trkpt>
      <trkpt lat="43.77533" lon="2.22676">
        <ele>226</ele>
        <time>2016-10-12T10:24:24Z</time>
      </trkpt>
      <trkpt lat="43.77519" lon="2.22701">
        <ele>226</ele>
        <time>2016-10-12T10:24:41Z</time>
      </trkpt>
      <trkpt lat="43.77504" lon="2.22723">
        <ele>227</ele>
        <time>2016-10-12T10:25:00Z</time>
      </trkpt>
      <trkpt lat="43.77487" lon="2.22744">
        <ele>227</ele>
        <time>2016-10-12T10:25:17Z</time>
      </trkpt>
      <trkpt lat="43.77469" lon="2.22762">
        <ele>227</ele>
        <time>2016-10-12T10:25:34Z</time>
      </trkpt>
      <trkpt lat="43.77443" lon="2.22785">
        <ele>227</ele>
        <time>2016-10-12T10:25:58Z</time>
      </trkpt>
      <trkpt lat="43.77421" lon="2.228">
        <ele>227</ele>
        <time>2016-10-12T10:26:17Z</time>
      </trkpt>
      <trkpt lat="43.77394" lon="2.22812">
        <ele>226</ele>
        <time>2016-10-12T10:26:39Z</time>
      </trkpt>
      <trkpt lat="43.77372" lon="2.2282">
        <ele>225</ele>
        <time>2016-10-12T10:26:59Z</time>
      </trkpt>
      <trkpt lat="43.7734" lon="2.22836">
        <ele>225</ele>
        <time>2016-10-12T10:27:24Z</time>
      </trkpt>
      <trkpt lat="43.77325" lon="2.22855">
        <ele>225</ele>
        <time>2016-10-12T10:27:40Z</time>
      </trkpt>
      <trkpt lat="43.77315" lon="2.2288">
        <ele>226</ele>
        <time>2016-10-12T10:27:56Z</time>
      </trkpt>
      <trkpt lat="43.77305" lon="2.22902">
        <ele>226</ele>
        <time>2016-10-12T10:28:12Z</time>
      </trkpt>
      <trkpt lat="43.77303" lon="2.22911">
        <ele>226</ele>
        <time>2016-10-12T10:28:18Z</time>
      </trkpt>
      <trkpt lat="43.77296" lon="2.22948">
        <ele>227</ele>
        <time>2016-10-12T10:28:39Z</time>
      </trkpt>
      <trkpt lat="43.77294" lon="2.22965">
        <ele>227</ele>
        <time>2016-10-12T10:28:48Z</time>
      </trkpt>
      <trkpt lat="43.77289" lon="2.22996">
        <ele>228</ele>
        <time>2016-10-12T10:29:04Z</time>
      </trkpt>
      <trkpt lat="43.77285" lon="2.2303">
        <ele>229</ele>
        <time>2016-10-12T10:29:24Z</time>
      </trkpt>
      <trkpt lat="43.77282" lon="2.2307">
        <ele>230</ele>
        <time>2016-10-12T10:29:46Z</time>
      </trkpt>
      <trkpt lat="43.77278" lon="2.23107">
        <ele>231</ele>
        <time>2016-10-12T10:30:07Z</time>
      </trkpt>
      <trkpt lat="43.77273" lon="2.23143">
        <ele>232</ele>
        <time>2016-10-12T10:30:28Z</time>
      </trkpt>
      <trkpt lat="43.77269" lon="2.2317">
        <ele>233</ele>
        <time>2016-10-12T10:30:45Z</time>
      </trkpt>
      <trkpt lat="43.77261" lon="2.23204">
        <ele>234</ele>
        <time>2016-10-12T10:31:04Z</time>
      </trkpt>
      <trkpt lat="43.7725" lon="2.23231">
        <ele>234</ele>
        <time>2016-10-12T10:31:21Z</time>
      </trkpt>
      <trkpt lat="43.77238" lon="2.23252">
        <ele>235</ele>
        <time>2016-10-12T10:31:38Z</time>
      </trkpt>
      <trkpt lat="43.77223" lon="2.23278">
        <ele>235</ele>
        <time>2016-10-12T10:31:57Z</time>
      </trkpt>
      <trkpt lat="43.77202" lon="2.23298">
        <ele>235</ele>
        <time>2016-10-12T10:32:16Z</time>
      </trkpt>
      <trkpt lat="43.77181" lon="2.23325">
        <ele>237</ele>
        <time>2016-10-12T10:32:38Z</time>
      </trkpt>
      <trkpt lat="43.7716" lon="2.23352">
        <ele>238</ele>
        <time>2016-10-12T10:33:01Z</time>
      </trkpt>
      <trkpt lat="43.77142" lon="2.23373">
        <ele>238</ele>
        <time>2016-10-12T10:33:20Z</time>
      </trkpt>
      <trkpt lat="43.77128" lon="2.2339">
        <ele>239</ele>
        <time>2016-10-12T10:33:36Z</time>
      </trkpt>
      <trkpt lat="43.77109" lon="2.23411">
        <ele>239</ele>
        <time>2016-10-12T10:33:56Z</time>
      </trkpt>
      <trkpt lat="43.77092" lon="2.23434">
        <ele>240</ele>
        <time>2016-10-12T10:34:16Z</time>
      </trkpt>
      <trkpt lat="43.77073" lon="2.23457">
        <ele>242</ele>
        <time>2016-10-12T10:34:35Z</time>
      </trkpt>
      <trkpt lat="43.77059" lon="2.23471">
        <ele>242</ele>
        <time>2016-10-12T10:34:50Z</time>
      </trkpt>
      <trkpt lat="43.77047" lon="2.23484">
        <ele>242</ele>
        <time>2016-10-12T10:35:06Z</time>
      </trkpt>
      <trkpt lat="43.7704" lon="2.23491">
        <ele>243</ele>
        <time>2016-10-12T10:35:24Z</time>
      </trkpt>
      <trkpt lat="43.77039" lon="2.23492">
        <ele>243</ele>
        <time>2016-10-12T10:36:12Z</time>
      </trkpt>
      <trkpt lat="43.77032" lon="2.23502">
        <ele>244</ele>
        <time>2016-10-12T10:36:24Z</time>
      </trkpt>
      <trkpt lat="43.77026" lon="2.23512">
        <ele>245</ele>
        <time>2016-10-12T10:36:35Z</time>
      </trkpt>
      <trkpt lat="43.77024" lon="2.23515">
        <ele>245</ele>
        <time>2016-10-12T10:36:38Z</time>
      </trkpt>
      <trkpt lat="43.77012" lon="2.23533">
        <ele>246</ele>
        <time>2016-10-12T10:36:54Z</time>
      </trkpt>
      <trkpt lat="43.77" lon="2.23551">
        <ele>247</ele>
        <time>2016-10-12T10:37:09Z</time>
      </trkpt>
      <trkpt lat="43.76989" lon="2.23565">
        <ele>248</ele>
        <time>2016-10-12T10:37:24Z</time>
      </trkpt>
      <trkpt lat="43.76972" lon="2.23583">
        <ele>250</ele>
        <time>2016-10-12T10:37:43Z</time>
      </trkpt>
      <trkpt lat="43.7696" lon="2.23596">
        <ele>250</ele>
        <time>2016-10-12T10:37:56Z</time>
      </trkpt>
      <trkpt lat="43.76945" lon="2.2361">
        <ele>251</ele>
        <time>2016-10-12T10:38:13Z</time>
      </trkpt>
      <trkpt lat="43.76933" lon="2.23621">
        <ele>252</ele>
        <time>2016-10-12T10:38:29Z</time>
      </trkpt>
      <trkpt lat="43.76921" lon="2.23628">
        <ele>252</ele>
        <time>2016-10-12T10:38:45Z</time>
      </trkpt>
      <trkpt lat="43.76914" lon="2.23637">
        <ele>252</ele>
        <time>2016-10-12T10:39:03Z</time>
      </trkpt>
      <trkpt lat="43.76902" lon="2.2366">
        <ele>254</ele>
        <time>2016-10-12T10:39:21Z</time>
      </trkpt>
      <trkpt lat="43.76899" lon="2.23691">
        <ele>256</ele>
        <time>2016-10-12T10:39:38Z</time>
      </trkpt>
      <trkpt lat="43.76902" lon="2.2371">
        <ele>257</ele>
        <time>2016-10-12T10:39:55Z</time>
      </trkpt>
      <trkpt lat="43.76914" lon="2.23733">
        <ele>259</ele>
        <time>2016-10-12T10:40:13Z</time>
      </trkpt>
      <trkpt lat="43.76923" lon="2.23756">
        <ele>261</ele>
        <time>2016-10-12T10:40:29Z</time>
      </trkpt>
      <trkpt lat="43.76927" lon="2.23768">
        <ele>262</ele>
        <time>2016-10-12T10:40:38Z</time>
      </trkpt>
      <trkpt lat="43.7693" lon="2.23783">
        <ele>264</ele>
        <time>2016-10-12T10:40:51Z</time>
      </trkpt>
      <trkpt lat="43.76939" lon="2.23796">
        <ele>265</ele>
        <time>2016-10-12T10:41:07Z</time>
      </trkpt>
      <trkpt lat="43.76951" lon="2.23816">
        <ele>269</ele>
        <time>2016-10-12T10:41:26Z</time>
      </trkpt>
      <trkpt lat="43.76961" lon="2.23839">
        <ele>272</ele>
        <time>2016-10-12T10:41:46Z</time>
      </trkpt>
      <trkpt lat="43.7697" lon="2.23861">
        <ele>275</ele>
        <time>2016-10-12T10:42:06Z</time>
      </trkpt>
      <trkpt lat="43.76977" lon="2.23877">
        <ele>276</ele>
        <time>2016-10-12T10:42:22Z</time>
      </trkpt>
      <trkpt lat="43.76985" lon="2.23896">
        <ele>278</ele>
        <time>2016-10-12T10:42:39Z</time>
      </trkpt>
      <trkpt lat="43.76993" lon="2.23915">
        <ele>279</ele>
        <time>2016-10-12T10:42:55Z</time>
      </trkpt>
      <trkpt lat="43.76998" lon="2.23929">
        <ele>279</ele>
        <time>2016-10-12T10:43:09Z</time>
      </trkpt>
      <trkpt lat="43.76999" lon="2.23934">
        <ele>279</ele>
        <time>2016-10-12T10:43:13Z</time>
      </trkpt>
      <trkpt lat="43.77001" lon="2.23943">
        <ele>279</ele>
        <time>2016-10-12T10:43:21Z</time>
      </trkpt>
      <trkpt lat="43.77003" lon="2.2395">
        <ele>280</ele>
        <time>2016-10-12T10:43:29Z</time>
      </trkpt>
      <trkpt lat="43.77009" lon="2.23967">
        <ele>281</ele>
        <time>2016-10-12T10:43:46Z</time>
      </trkpt>
      <trkpt lat="43.77013" lon="2.23983">
        <ele>282</ele>
        <time>2016-10-12T10:43:59Z</time>
      </trkpt>
      <trkpt lat="43.77017" lon="2.24">
        <ele>284</ele>
        <time>2016-10-12T10:44:15Z</time>
      </trkpt>
      <trkpt lat="43.7702" lon="2.24018">
        <ele>287</ele>
        <time>2016-10-12T10:44:30Z</time>
      </trkpt>
      <trkpt lat="43.77022" lon="2.24031">
        <ele>288</ele>
        <time>2016-10-12T10:44:45Z</time>
      </trkpt>
      <trkpt lat="43.77024" lon="2.24054">
        <ele>291</ele>
        <time>2016-10-12T10:45:01Z</time>
      </trkpt>
      <trkpt lat="43.77029" lon="2.2407">
        <ele>293</ele>
        <time>2016-10-12T10:45:15Z</time>
      </trkpt>
      <trkpt lat="43.77032" lon="2.24085">
        <ele>295</ele>
        <time>2016-10-12T10:45:29Z</time>
      </trkpt>
      <trkpt lat="43.77034" lon="2.24106">
        <ele>297</ele>
        <time>2016-10-12T10:45:44Z</time>
      </trkpt>
      <trkpt lat="43.77036" lon="2.24128">
        <ele>298</ele>
        <time>2016-10-12T10:46:01Z</time>
      </trkpt>
      <trkpt lat="43.77039" lon="2.2415">
        <ele>299</ele>
        <time>2016-10-12T10:46:17Z</time>
      </trkpt>
      <trkpt lat="43.77045" lon="2.24173">
        <ele>300</ele>
        <time>2016-10-12T10:46:35Z</time>
      </trkpt>
      <trkpt lat="43.77048" lon="2.24189">
        <ele>301</ele>
        <time>2016-10-12T10:46:47Z</time>
      </trkpt>
      <trkpt lat="43.77048" lon="2.24193">
        <ele>301</ele>
        <time>2016-10-12T10:46:50Z</time>
      </trkpt>
      <trkpt lat="43.77052" lon="2.24207">
        <ele>301</ele>
        <time>2016-10-12T10:47:05Z</time>
      </trkpt>
      <trkpt lat="43.77056" lon="2.24224">
        <ele>302</ele>
        <time>2016-10-12T10:47:20Z</time>
      </trkpt>
      <trkpt lat="43.77058" lon="2.24241">
        <ele>303</ele>
        <time>2016-10-12T10:47:37Z</time>
      </trkpt>
      <trkpt lat="43.77056" lon="2.24262">
        <ele>304</ele>
        <time>2016-10-12T10:47:53Z</time>
      </trkpt>
      <trkpt lat="43.77055" lon="2.24264">
        <ele>304</ele>
        <time>2016-10-12T10:47:55Z</time>
      </trkpt>
      <trkpt lat="43.77047" lon="2.24289">
        <ele>306</ele>
        <time>2016-10-12T10:48:13Z</time>
      </trkpt>
      <trkpt lat="43.77042" lon="2.24309">
        <ele>307</ele>
        <time>2016-10-12T10:48:30Z</time>
      </trkpt>
      <trkpt lat="43.77037" lon="2.24331">
        <ele>309</ele>
        <time>2016-10-12T10:48:48Z</time>
      </trkpt>
      <trkpt lat="43.7703" lon="2.24355">
        <ele>310</ele>
        <time>2016-10-12T10:49:06Z</time>
      </trkpt>
      <trkpt lat="43.77026" lon="2.24379">
        <ele>311</ele>
        <time>2016-10-12T10:49:23Z</time>
      </trkpt>
      <trkpt lat="43.77024" lon="2.24408">
        <ele>313</ele>
        <time>2016-10-12T10:49:42Z</time>
      </trkpt>
      <trkpt lat="43.77026" lon="2.2444">
        <ele>313</ele>
        <time>2016-10-12T10:50:01Z</time>
      </trkpt>
      <trkpt lat="43.77026" lon="2.24468">
        <ele>314</ele>
        <time>2016-10-12T10:50:18Z</time>
      </trkpt>
      <trkpt lat="43.77027" lon="2.24494">
        <ele>314</ele>
        <time>2016-10-12T10:50:36Z</time>
      </trkpt>
      <trkpt lat="43.77027" lon="2.24499">
        <ele>314</ele>
        <time>2016-10-12T10:50:39Z</time>
      </trkpt>
      <trkpt lat="43.77028" lon="2.24533">
        <ele>313</ele>
        <time>2016-10-12T10:51:00Z</time>
      </trkpt>
      <trkpt lat="43.77027" lon="2.24561">
        <ele>313</ele>
        <time>2016-10-12T10:51:17Z</time>
      </trkpt>
      <trkpt lat="43.77022" lon="2.24593">
        <ele>312</ele>
        <time>2016-10-12T10:51:37Z</time>
      </trkpt>
      <trkpt lat="43.77015" lon="2.24624">
        <ele>311</ele>
        <time>2016-10-12T10:51:57Z</time>
      </trkpt>
      <trkpt lat="43.77016" lon="2.24656">
        <ele>310</ele>
        <time>2016-10-12T10:52:16Z</time>
      </trkpt>
      <trkpt lat="43.77035" lon="2.24676">
        <ele>311</ele>
        <time>2016-10-12T10:52:36Z</time>
      </trkpt>
      <trkpt lat="43.77055" lon="2.24699">
        <ele>313</ele>
        <time>2016-10-12T10:52:57Z</time>
      </trkpt>
      <trkpt lat="43.77078" lon="2.24721">
        <ele>314</ele>
        <time>2016-10-12T10:53:19Z</time>
      </trkpt>
      <trkpt lat="43.77103" lon="2.2474">
        <ele>316</ele>
        <time>2016-10-12T10:53:42Z</time>
      </trkpt>
      <trkpt lat="43.77125" lon="2.24755">
        <ele>317</ele>
        <time>2016-10-12T10:54:02Z</time>
      </trkpt>
      <trkpt lat="43.77148" lon="2.2477">
        <ele>318</ele>
        <time>2016-10-12T10:54:23Z</time>
      </trkpt>
      <trkpt lat="43.77166" lon="2.24779">
        <ele>319</ele>
        <time>2016-10-12T10:54:39Z</time>
      </trkpt>
      <trkpt lat="43.77182" lon="2.24787">
        <ele>319</ele>
        <time>2016-10-12T10:54:55Z</time>
      </trkpt>
      <trkpt lat="43.7721" lon="2.24797">
        <ele>320</ele>
        <time>2016-10-12T10:55:18Z</time>
      </trkpt>
      <trkpt lat="43.7723" lon="2.24803">
        <ele>321</ele>
        <time>2016-10-12T10:55:35Z</time>
      </trkpt>
      <trkpt lat="43.7725" lon="2.2481">
        <ele>323</ele>
        <time>2016-10-12T10:55:53Z</time>
      </trkpt>
      <trkpt lat="43.7727" lon="2.24816">
        <ele>324</ele>
        <time>2016-10-12T10:56:09Z</time>
      </trkpt>
      <trkpt lat="43.77286" lon="2.24822">
        <ele>327</ele>
        <time>2016-10-12T10:56:25Z</time>
      </trkpt>
      <trkpt lat="43.77302" lon="2.24826">
        <ele>329</ele>
        <time>2016-10-12T10:56:39Z</time>
      </trkpt>
      <trkpt lat="43.77319" lon="2.24831">
        <ele>332</ele>
        <time>2016-10-12T10:56:53Z</time>
      </trkpt>
      <trkpt lat="43.77334" lon="2.24835">
        <ele>334</ele>
        <time>2016-10-12T10:57:06Z</time>
      </trkpt>
      <trkpt lat="43.7734" lon="2.24836">
        <ele>334</ele>
        <time>2016-10-12T10:57:12Z</time>
      </trkpt>
      <trkpt lat="43.77359" lon="2.24841">
        <ele>336</ele>
        <time>2016-10-12T10:57:29Z</time>
      </trkpt>
      <trkpt lat="43.77383" lon="2.24849">
        <ele>336</ele>
        <time>2016-10-12T10:57:50Z</time>
      </trkpt>
      <trkpt lat="43.77407" lon="2.24853">
        <ele>337</ele>
        <time>2016-10-12T10:58:10Z</time>
      </trkpt>
      <trkpt lat="43.77428" lon="2.24852">
        <ele>338</ele>
        <time>2016-10-12T10:58:28Z</time>
      </trkpt>
      <trkpt lat="43.77449" lon="2.24853">
        <ele>338</ele>
        <time>2016-10-12T10:58:47Z</time>
      </trkpt>
      <trkpt lat="43.77469" lon="2.24858">
        <ele>338</ele>
        <time>2016-10-12T10:59:06Z</time>
      </trkpt>
      <trkpt lat="43.77495" lon="2.24865">
        <ele>339</ele>
        <time>2016-10-12T10:59:27Z</time>
      </trkpt>
      <trkpt lat="43.77513" lon="2.24871">
        <ele>339</ele>
        <time>2016-10-12T10:59:45Z</time>
      </trkpt>
      <trkpt lat="43.77535" lon="2.24877">
        <ele>339</ele>
        <time>2016-10-12T11:00:04Z</time>
      </trkpt>
      <trkpt lat="43.77562" lon="2.24883">
        <ele>340</ele>
        <time>2016-10-12T11:00:24Z</time>
      </trkpt>
      <trkpt lat="43.77584" lon="2.24888">
        <ele>340</ele>
        <time>2016-10-12T11:00:43Z</time>
      </trkpt>
      <trkpt lat="43.77604" lon="2.24893">
        <ele>341</ele>
        <time>2016-10-12T11:01:01Z</time>
      </trkpt>
      <trkpt lat="43.77621" lon="2.24899">
        <ele>341</ele>
        <time>2016-10-12T11:01:17Z</time>
      </trkpt>
      <trkpt lat="43.77638" lon="2.24905">
        <ele>342</ele>
        <time>2016-10-12T11:01:32Z</time>
      </trkpt>
      <trkpt lat="43.77657" lon="2.2491">
        <ele>342</ele>
        <time>2016-10-12T11:01:49Z</time>
      </trkpt>
      <trkpt lat="43.77675" lon="2.24915">
        <ele>342</ele>
        <time>2016-10-12T11:02:05Z</time>
      </trkpt>
      <trkpt lat="43.77696" lon="2.24921">
        <ele>342</ele>
        <time>2016-10-12T11:02:24Z</time>
      </trkpt>
      <trkpt lat="43.77721" lon="2.24927">
        <ele>342</ele>
        <time>2016-10-12T11:02:44Z</time>
      </trkpt>
      <trkpt lat="43.77745" lon="2.24934">
        <ele>342</ele>
        <time>2016-10-12T11:03:05Z</time>
      </trkpt>
      <trkpt lat="43.77768" lon="2.24947">
        <ele>341</ele>
        <time>2016-10-12T11:03:26Z</time>
      </trkpt>
      <trkpt lat="43.7779" lon="2.24965">
        <ele>341</ele>
        <time>2016-10-12T11:03:47Z</time>
      </trkpt>
      <trkpt lat="43.77808" lon="2.24986">
        <ele>341</ele>
        <time>2016-10-12T11:04:07Z</time>
      </trkpt>
      <trkpt lat="43.77826" lon="2.25007">
        <ele>341</ele>
        <time>2016-10-12T11:04:27Z</time>
      </trkpt>
      <trkpt lat="43.77843" lon="2.25024">
        <ele>342</ele>
        <time>2016-10-12T11:04:45Z</time>
      </trkpt>
      <trkpt lat="43.77862" lon="2.25038">
        <ele>342</ele>
        <time>2016-10-12T11:05:03Z</time>
      </trkpt>
      <trkpt lat="43.77882" lon="2.25048">
        <ele>342</ele>
        <time>2016-10-12T11:05:21Z</time>
      </trkpt>
      <trkpt lat="43.77905" lon="2.25061">
        <ele>342</ele>
        <time>2016-10-12T11:05:42Z</time>
      </trkpt>
      <trkpt lat="43.77932" lon="2.25074">
        <ele>342</ele>
        <time>2016-10-12T11:06:06Z</time>
      </trkpt>
      <trkpt lat="43.77955" lon="2.25083">
        <ele>342</ele>
        <time>2016-10-12T11:06:25Z</time>
      </trkpt>
      <trkpt lat="43.77978" lon="2.25092">
        <ele>342</ele>
        <time>2016-10-12T11:06:46Z</time>
      </trkpt>
      <trkpt lat="43.77997" lon="2.251">
        <ele>342</ele>
        <time>2016-10-12T11:07:04Z</time>
      </trkpt>
      <trkpt lat="43.78016" lon="2.25113">
        <ele>342</ele>
        <time>2016-10-12T11:07:22Z</time>
      </trkpt>
      <trkpt lat="43.78035" lon="2.25128">
        <ele>341</ele>
        <time>2016-10-12T11:07:40Z</time>
      </trkpt>
      <trkpt lat="43.78055" lon="2.25147">
        <ele>341</ele>
        <time>2016-10-12T11:08:01Z</time>
      </trkpt>
      <trkpt lat="43.78077" lon="2.25167">
        <ele>341</ele>
        <time>2016-10-12T11:08:22Z</time>
      </trkpt>
      <trkpt lat="43.78096" lon="2.25181">
        <ele>341</ele>
        <time>2016-10-12T11:08:39Z</time>
      </trkpt>
      <trkpt lat="43.78122" lon="2.25196">
        <ele>341</ele>
        <time>2016-10-12T11:09:03Z</time>
      </trkpt>
      <trkpt lat="43.7814" lon="2.25208">
        <ele>341</ele>
        <time>2016-10-12T11:09:21Z</time>
      </trkpt>
      <trkpt lat="43.78133" lon="2.25231">
        <ele>341</ele>
        <time>2016-10-12T11:09:37Z</time>
      </trkpt>
      <trkpt lat="43.78119" lon="2.25259">
        <ele>341</ele>
        <time>2016-10-12T11:09:58Z</time>
      </trkpt>
      <trkpt lat="43.78107" lon="2.25283">
        <ele>341</ele>
        <time>2016-10-12T11:10:15Z</time>
      </trkpt>
      <trkpt lat="43.78095" lon="2.25312">
        <ele>341</ele>
        <time>2016-10-12T11:10:34Z</time>
      </trkpt>
      <trkpt lat="43.78083" lon="2.25336">
        <ele>341</ele>
        <time>2016-10-12T11:10:52Z</time>
      </trkpt>
      <trkpt lat="43.78073" lon="2.25357">
        <ele>341</ele>
        <time>2016-10-12T11:11:07Z</time>
      </trkpt>
      <trkpt lat="43.78058" lon="2.25385">
        <ele>342</ele>
        <time>2016-10-12T11:11:29Z</time>
      </trkpt>
      <trkpt lat="43.78047" lon="2.25405">
        <ele>342</ele>
        <time>2016-10-12T11:11:46Z</time>
      </trkpt>
      <trkpt lat="43.78035" lon="2.25426">
        <ele>342</ele>
        <time>2016-10-12T11:12:02Z</time>
      </trkpt>
      <trkpt lat="43.78033" lon="2.25431">
        <ele>342</ele>
        <time>2016-10-12T11:12:05Z</time>
      </trkpt>
      <trkpt lat="43.78025" lon="2.25445">
        <ele>342</ele>
        <time>2016-10-12T11:12:17Z</time>
      </trkpt>
      <trkpt lat="43.78015" lon="2.25466">
        <ele>341</ele>
        <time>2016-10-12T11:12:35Z</time>
      </trkpt>
      <trkpt lat="43.78009" lon="2.25481">
        <ele>341</ele>
        <time>2016-10-12T11:12:47Z</time>
      </trkpt>
      <trkpt lat="43.77999" lon="2.25502">
        <ele>340</ele>
        <time>2016-10-12T11:13:05Z</time>
      </trkpt>
      <trkpt lat="43.77996" lon="2.25514">
        <ele>340</ele>
        <time>2016-10-12T11:13:17Z</time>
      </trkpt>
      <trkpt lat="43.77985" lon="2.25533">
        <ele>339</ele>
        <time>2016-10-12T11:13:34Z</time>
      </trkpt>
      <trkpt lat="43.7798" lon="2.25553">
        <ele>339</ele>
        <time>2016-10-12T11:13:48Z</time>
      </trkpt>
      <trkpt lat="43.7798" lon="2.25555">
        <ele>339</ele>
        <time>2016-10-12T11:13:50Z</time>
      </trkpt>
      <trkpt lat="43.77973" lon="2.25577">
        <ele>337</ele>
        <time>2016-10-12T11:14:06Z</time>
      </trkpt>
      <trkpt lat="43.77966" lon="2.25601">
        <ele>335</ele>
        <time>2016-10-12T11:14:24Z</time>
      </trkpt>
      <trkpt lat="43.7796" lon="2.25624">
        <ele>333</ele>
        <time>2016-10-12T11:14:41Z</time>
      </trkpt>
      <trkpt lat="43.77955" lon="2.25656">
        <ele>328</ele>
        <time>2016-10-12T11:15:01Z</time>
      </trkpt>
      <trkpt lat="43.77949" lon="2.25678">
        <ele>327</ele>
        <time>2016-10-12T11:15:16Z</time>
      </trkpt>
      <trkpt lat="43.77944" lon="2.25703">
        <ele>328</ele>
        <time>2016-10-12T11:15:34Z</time>
      </trkpt>
      <trkpt lat="43.7794" lon="2.25723">
        <ele>327</ele>
        <time>2016-10-12T11:15:49Z</time>
      </trkpt>
      <trkpt lat="43.77935" lon="2.25745">
        <ele>326</ele>
        <time>2016-10-12T11:16:03Z</time>
      </trkpt>
      <trkpt lat="43.77931" lon="2.25764">
        <ele>325</ele>
        <time>2016-10-12T11:16:17Z</time>
      </trkpt>
      <trkpt lat="43.77924" lon="2.25783">
        <ele>322</ele>
        <time>2016-10-12T11:16:31Z</time>
      </trkpt>
      <trkpt lat="43.7792" lon="2.25797">
        <ele>319</ele>
        <time>2016-10-12T11:16:40Z</time>
      </trkpt>
      <trkpt lat="43.77913" lon="2.25816">
        <ele>315</ele>
        <time>2016-10-12T11:16:56Z</time>
      </trkpt>
      <trkpt lat="43.77913" lon="2.25838">
        <ele>314</ele>
        <time>2016-10-12T11:17:11Z</time>
      </trkpt>
      <trkpt lat="43.77917" lon="2.25856">
        <ele>312</ele>
        <time>2016-10-12T11:17:27Z</time>
      </trkpt>
      <trkpt lat="43.77926" lon="2.2587">
        <ele>311</ele>
        <time>2016-10-12T11:17:40Z</time>
      </trkpt>
      <trkpt lat="43.77928" lon="2.25872">
        <ele>311</ele>
        <time>2016-10-12T11:17:42Z</time>
      </trkpt>
      <trkpt lat="43.77942" lon="2.25876">
        <ele>311</ele>
        <time>2016-10-12T11:17:57Z</time>
      </trkpt>
      <trkpt lat="43.77952" lon="2.25881">
        <ele>311</ele>
        <time>2016-10-12T11:18:11Z</time>
      </trkpt>
      <trkpt lat="43.77952" lon="2.25883">
        <ele>311</ele>
        <time>2016-10-12T11:18:18Z</time>
      </trkpt>
      <trkpt lat="43.77933" lon="2.25888">
        <ele>308</ele>
        <time>2016-10-12T11:18:36Z</time>
      </trkpt>
      <trkpt lat="43.77922" lon="2.25894">
        <ele>306</ele>
        <time>2016-10-12T11:18:50Z</time>
      </trkpt>
      <trkpt lat="43.77914" lon="2.25905">
        <ele>304</ele>
        <time>2016-10-12T11:19:01Z</time>
      </trkpt>
      <trkpt lat="43.7792" lon="2.25912">
        <ele>303</ele>
        <time>2016-10-12T11:19:16Z</time>
      </trkpt>
      <trkpt lat="43.77931" lon="2.25906">
        <ele>305</ele>
        <time>2016-10-12T11:19:30Z</time>
      </trkpt>
      <trkpt lat="43.77935" lon="2.25904">
        <ele>305</ele>
        <time>2016-10-12T11:19:33Z</time>
      </trkpt>
      <trkpt lat="43.7795" lon="2.25902">
        <ele>306</ele>
        <time>2016-10-12T11:19:48Z</time>
      </trkpt>
      <trkpt lat="43.77962" lon="2.25903">
        <ele>306</ele>
        <time>2016-10-12T11:20:01Z</time>
      </trkpt>
      <trkpt lat="43.77972" lon="2.2591">
        <ele>305</ele>
        <time>2016-10-12T11:20:16Z</time>
      </trkpt>
      <trkpt lat="43.77972" lon="2.25918">
        <ele>304</ele>
        <time>2016-10-12T11:20:36Z</time>
      </trkpt>
      <trkpt lat="43.77976" lon="2.2592">
        <ele>304</ele>
        <time>2016-10-12T11:20:53Z</time>
      </trkpt>
      <trkpt lat="43.77979" lon="2.25921">
        <ele>304</ele>
        <time>2016-10-12T11:21:10Z</time>
      </trkpt>
      <trkpt lat="43.7798" lon="2.2592">
        <ele>304</ele>
        <time>2016-10-12T11:21:29Z</time>
      </trkpt>
      <trkpt lat="43.7798" lon="2.2592">
        <ele>304</ele>
        <time>2016-10-12T11:21:30Z</time>
      </trkpt>
      <trkpt lat="43.7798" lon="2.2592">
        <ele>304</ele>
        <time>2016-10-12T11:21:31Z</time>
      </trkpt>
      <trkpt lat="43.7798" lon="2.2592">
        <ele>304</ele>
        <time>2016-10-12T11:21:33Z</time>
      </trkpt>
      <trkpt lat="43.77981" lon="2.25921">
        <ele>304</ele>
        <time>2016-10-12T11:22:21Z</time>
      </trkpt>
      <trkpt lat="43.77981" lon="2.25922">
        <ele>303</ele>
        <time>2016-10-12T11:45:16Z</time>
      </trkpt>
      <trkpt lat="43.77979" lon="2.25922">
        <ele>303</ele>
        <time>2016-10-12T11:49:51Z</time>
      </trkpt>
      <trkpt lat="43.77979" lon="2.25922">
        <ele>303</ele>
        <time>2016-10-12T11:50:51Z</time>
      </trkpt>
      <trkpt lat="43.77979" lon="2.25923">
        <ele>303</ele>
        <time>2016-10-12T11:51:31Z</time>
      </trkpt>
      <trkpt lat="43.77979" lon="2.25924">
        <ele>303</ele>
        <time>2016-10-12T11:51:58Z</time>
      </trkpt>
      <trkpt lat="43.77979" lon="2.25923">
        <ele>303</ele>
        <time>2016-10-12T11:52:48Z</time>
      </trkpt>
      <trkpt lat="43.7798" lon="2.25923">
        <ele>303</ele>
        <time>2016-10-12T11:54:02Z</time>
      </trkpt>
      <trkpt lat="43.77975" lon="2.25921">
        <ele>304</ele>
        <time>2016-10-12T11:54:55Z</time>
      </trkpt>
      <trkpt lat="43.77972" lon="2.2592">
        <ele>304</ele>
        <time>2016-10-12T11:55:11Z</time>
      </trkpt>
      <trkpt lat="43.77969" lon="2.25914">
        <ele>305</ele>
        <time>2016-10-12T11:55:26Z</time>
      </trkpt>
      <trkpt lat="43.77969" lon="2.25904">
        <ele>306</ele>
        <time>2016-10-12T11:55:38Z</time>
      </trkpt>
      <trkpt lat="43.77954" lon="2.25906">
        <ele>306</ele>
        <time>2016-10-12T11:55:56Z</time>
      </trkpt>
      <trkpt lat="43.77949" lon="2.25905">
        <ele>306</ele>
        <time>2016-10-12T11:56:03Z</time>
      </trkpt>
      <trkpt lat="43.77934" lon="2.25908">
        <ele>305</ele>
        <time>2016-10-12T11:56:18Z</time>
      </trkpt>
      <trkpt lat="43.77914" lon="2.25905">
        <ele>304</ele>
        <time>2016-10-12T11:56:38Z</time>
      </trkpt>
      <trkpt lat="43.77913" lon="2.25902">
        <ele>304</ele>
        <time>2016-10-12T11:56:40Z</time>
      </trkpt>
      <trkpt lat="43.77914" lon="2.259">
        <ele>304</ele>
        <time>2016-10-12T11:56:42Z</time>
      </trkpt>
      <trkpt lat="43.77924" lon="2.25892">
        <ele>306</ele>
        <time>2016-10-12T11:56:53Z</time>
      </trkpt>
      <trkpt lat="43.7794" lon="2.2588">
        <ele>310</ele>
        <time>2016-10-12T11:57:09Z</time>
      </trkpt>
      <trkpt lat="43.77951" lon="2.2587">
        <ele>314</ele>
        <time>2016-10-12T11:57:25Z</time>
      </trkpt>
      <trkpt lat="43.77944" lon="2.25868">
        <ele>314</ele>
        <time>2016-10-12T11:57:32Z</time>
      </trkpt>
      <trkpt lat="43.77934" lon="2.2587">
        <ele>312</ele>
        <time>2016-10-12T11:57:45Z</time>
      </trkpt>
      <trkpt lat="43.77925" lon="2.25866">
        <ele>311</ele>
        <time>2016-10-12T11:57:56Z</time>
      </trkpt>
      <trkpt lat="43.77915" lon="2.25851">
        <ele>312</ele>
        <time>2016-10-12T11:58:12Z</time>
      </trkpt>
      <trkpt lat="43.77912" lon="2.25847">
        <ele>312</ele>
        <time>2016-10-12T11:58:16Z</time>
      </trkpt>
      <trkpt lat="43.77912" lon="2.25823">
        <ele>315</ele>
        <time>2016-10-12T11:58:32Z</time>
      </trkpt>
      <trkpt lat="43.77916" lon="2.25808">
        <ele>317</ele>
        <time>2016-10-12T11:58:44Z</time>
      </trkpt>
      <trkpt lat="43.7792" lon="2.258">
        <ele>319</ele>
        <time>2016-10-12T11:58:57Z</time>
      </trkpt>
      <trkpt lat="43.77928" lon="2.25783">
        <ele>323</ele>
        <time>2016-10-12T11:59:11Z</time>
      </trkpt>
      <trkpt lat="43.77929" lon="2.25776">
        <ele>324</ele>
        <time>2016-10-12T11:59:16Z</time>
      </trkpt>
      <trkpt lat="43.77933" lon="2.25766">
        <ele>325</ele>
        <time>2016-10-12T11:59:23Z</time>
      </trkpt>
      <trkpt lat="43.77938" lon="2.25745">
        <ele>327</ele>
        <time>2016-10-12T11:59:37Z</time>
      </trkpt>
      <trkpt lat="43.77938" lon="2.2574">
        <ele>327</ele>
        <time>2016-10-12T11:59:41Z</time>
      </trkpt>
      <trkpt lat="43.7794" lon="2.25734">
        <ele>328</ele>
        <time>2016-10-12T11:59:45Z</time>
      </trkpt>
      <trkpt lat="43.77944" lon="2.25711">
        <ele>328</ele>
        <time>2016-10-12T12:00:00Z</time>
      </trkpt>
      <trkpt lat="43.77946" lon="2.25697">
        <ele>328</ele>
        <time>2016-10-12T12:00:07Z</time>
      </trkpt>
      <trkpt lat="43.77953" lon="2.25668">
        <ele>328</ele>
        <time>2016-10-12T12:00:24Z</time>
      </trkpt>
      <trkpt lat="43.77953" lon="2.25667">
        <ele>328</ele>
        <time>2016-10-12T12:00:25Z</time>
      </trkpt>
      <trkpt lat="43.77957" lon="2.25647">
        <ele>330</ele>
        <time>2016-10-12T12:00:39Z</time>
      </trkpt>
      <trkpt lat="43.77962" lon="2.25629">
        <ele>333</ele>
        <time>2016-10-12T12:00:52Z</time>
      </trkpt>
      <trkpt lat="43.77967" lon="2.2561">
        <ele>335</ele>
        <time>2016-10-12T12:01:07Z</time>
      </trkpt>
      <trkpt lat="43.7797" lon="2.25587">
        <ele>337</ele>
        <time>2016-10-12T12:01:22Z</time>
      </trkpt>
      <trkpt lat="43.77974" lon="2.25575">
        <ele>337</ele>
        <time>2016-10-12T12:01:32Z</time>
      </trkpt>
      <trkpt lat="43.77977" lon="2.25557">
        <ele>338</ele>
        <time>2016-10-12T12:01:46Z</time>
      </trkpt>
      <trkpt lat="43.77981" lon="2.25544">
        <ele>339</ele>
        <time>2016-10-12T12:02:00Z</time>
      </trkpt>
      <trkpt lat="43.77987" lon="2.25532">
        <ele>339</ele>
        <time>2016-10-12T12:02:15Z</time>
      </trkpt>
      <trkpt lat="43.77994" lon="2.25515">
        <ele>339</ele>
        <time>2016-10-12T12:02:30Z</time>
      </trkpt>
      <trkpt lat="43.78002" lon="2.25499">
        <ele>340</ele>
        <time>2016-10-12T12:02:47Z</time>
      </trkpt>
      <trkpt lat="43.78003" lon="2.25494">
        <ele>340</ele>
        <time>2016-10-12T12:02:54Z</time>
      </trkpt>
      <trkpt lat="43.78011" lon="2.25477">
        <ele>341</ele>
        <time>2016-10-12T12:03:09Z</time>
      </trkpt>
      <trkpt lat="43.78015" lon="2.25469">
        <ele>341</ele>
        <time>2016-10-12T12:03:16Z</time>
      </trkpt>
      <trkpt lat="43.78017" lon="2.25465">
        <ele>341</ele>
        <time>2016-10-12T12:03:20Z</time>
      </trkpt>
      <trkpt lat="43.78019" lon="2.25461">
        <ele>341</ele>
        <time>2016-10-12T12:03:24Z</time>
      </trkpt>
      <trkpt lat="43.78027" lon="2.25443">
        <ele>342</ele>
        <time>2016-10-12T12:03:39Z</time>
      </trkpt>
      <trkpt lat="43.78035" lon="2.25426">
        <ele>342</ele>
        <time>2016-10-12T12:03:55Z</time>
      </trkpt>
      <trkpt lat="43.78047" lon="2.25407">
        <ele>342</ele>
        <time>2016-10-12T12:04:13Z</time>
      </trkpt>
      <trkpt lat="43.78051" lon="2.25397">
        <ele>342</ele>
        <time>2016-10-12T12:04:22Z</time>
      </trkpt>
      <trkpt lat="43.78052" lon="2.25396">
        <ele>342</ele>
        <time>2016-10-12T12:04:23Z</time>
      </trkpt>
      <trkpt lat="43.78062" lon="2.25377">
        <ele>342</ele>
        <time>2016-10-12T12:04:40Z</time>
      </trkpt>
      <trkpt lat="43.78073" lon="2.2536">
        <ele>341</ele>
        <time>2016-10-12T12:04:57Z</time>
      </trkpt>
      <trkpt lat="43.78082" lon="2.25337">
        <ele>341</ele>
        <time>2016-10-12T12:05:15Z</time>
      </trkpt>
      <trkpt lat="43.78085" lon="2.25331">
        <ele>341</ele>
        <time>2016-10-12T12:05:20Z</time>
      </trkpt>
      <trkpt lat="43.78096" lon="2.25312">
        <ele>341</ele>
        <time>2016-10-12T12:05:36Z</time>
      </trkpt>
      <trkpt lat="43.78108" lon="2.25283">
        <ele>341</ele>
        <time>2016-10-12T12:05:56Z</time>
      </trkpt>
      <trkpt lat="43.78114" lon="2.25273">
        <ele>341</ele>
        <time>2016-10-12T12:06:04Z</time>
      </trkpt>
      <trkpt lat="43.78123" lon="2.25253">
        <ele>341</ele>
        <time>2016-10-12T12:06:20Z</time>
      </trkpt>
      <trkpt lat="43.78133" lon="2.25234">
        <ele>341</ele>
        <time>2016-10-12T12:06:36Z</time>
      </trkpt>
      <trkpt lat="43.78143" lon="2.25209">
        <ele>341</ele>
        <time>2016-10-12T12:06:55Z</time>
      </trkpt>
      <trkpt lat="43.78144" lon="2.25207">
        <ele>341</ele>
        <time>2016-10-12T12:07:13Z</time>
      </trkpt>
      <trkpt lat="43.78141" lon="2.25206">
        <ele>341</ele>
        <time>2016-10-12T12:07:27Z</time>
      </trkpt>
      <trkpt lat="43.78142" lon="2.25205">
        <ele>341</ele>
        <time>2016-10-12T12:07:58Z</time>
      </trkpt>
      <trkpt lat="43.78142" lon="2.25205">
        <ele>341</ele>
        <time>2016-10-12T12:08:06Z</time>
      </trkpt>
      <trkpt lat="43.78126" lon="2.25196">
        <ele>341</ele>
        <time>2016-10-12T12:08:22Z</time>
      </trkpt>
      <trkpt lat="43.7812" lon="2.25193">
        <ele>341</ele>
        <time>2016-10-12T12:08:28Z</time>
      </trkpt>
      <trkpt lat="43.78097" lon="2.2518">
        <ele>341</ele>
        <time>2016-10-12T12:08:51Z</time>
      </trkpt>
      <trkpt lat="43.7808" lon="2.25169">
        <ele>341</ele>
        <time>2016-10-12T12:09:07Z</time>
      </trkpt>
      <trkpt lat="43.78062" lon="2.25153">
        <ele>341</ele>
        <time>2016-10-12T12:09:24Z</time>
      </trkpt>
      <trkpt lat="43.78058" lon="2.2515">
        <ele>341</ele>
        <time>2016-10-12T12:09:29Z</time>
      </trkpt>
      <trkpt lat="43.7804" lon="2.25132">
        <ele>341</ele>
        <time>2016-10-12T12:09:47Z</time>
      </trkpt>
      <trkpt lat="43.78019" lon="2.25113">
        <ele>342</ele>
        <time>2016-10-12T12:10:07Z</time>
      </trkpt>
      <trkpt lat="43.77997" lon="2.251">
        <ele>342</ele>
        <time>2016-10-12T12:10:27Z</time>
      </trkpt>
      <trkpt lat="43.77978" lon="2.25091">
        <ele>342</ele>
        <time>2016-10-12T12:10:43Z</time>
      </trkpt>
      <trkpt lat="43.77961" lon="2.25084">
        <ele>342</ele>
        <time>2016-10-12T12:10:57Z</time>
      </trkpt>
      <trkpt lat="43.77942" lon="2.25077">
        <ele>342</ele>
        <time>2016-10-12T12:11:13Z</time>
      </trkpt>
      <trkpt lat="43.77919" lon="2.25066">
        <ele>342</ele>
        <time>2016-10-12T12:11:33Z</time>
      </trkpt>
      <trkpt lat="43.77895" lon="2.25054">
        <ele>342</ele>
        <time>2016-10-12T12:11:53Z</time>
      </trkpt>
      <trkpt lat="43.77873" lon="2.25043">
        <ele>342</ele>
        <time>2016-10-12T12:12:11Z</time>
      </trkpt>
      <trkpt lat="43.77849" lon="2.2503">
        <ele>342</ele>
        <time>2016-10-12T12:12:31Z</time>
      </trkpt>
      <trkpt lat="43.77828" lon="2.2501">
        <ele>341</ele>
        <time>2016-10-12T12:12:51Z</time>
      </trkpt>
      <trkpt lat="43.77809" lon="2.24987">
        <ele>341</ele>
        <time>2016-10-12T12:13:11Z</time>
      </trkpt>
      <trkpt lat="43.77788" lon="2.24961">
        <ele>341</ele>
        <time>2016-10-12T12:13:33Z</time>
      </trkpt>
      <trkpt lat="43.77768" lon="2.24944">
        <ele>341</ele>
        <time>2016-10-12T12:13:52Z</time>
      </trkpt>
      <trkpt lat="43.77741" lon="2.24934">
        <ele>342</ele>
        <time>2016-10-12T12:14:14Z</time>
      </trkpt>
      <trkpt lat="43.77714" lon="2.24926">
        <ele>342</ele>
        <time>2016-10-12T12:14:35Z</time>
      </trkpt>
      <trkpt lat="43.77686" lon="2.24917">
        <ele>342</ele>
        <time>2016-10-12T12:14:58Z</time>
      </trkpt>
      <trkpt lat="43.77669" lon="2.2491">
        <ele>342</ele>
        <time>2016-10-12T12:15:13Z</time>
      </trkpt>
      <trkpt lat="43.77647" lon="2.24906">
        <ele>342</ele>
        <time>2016-10-12T12:15:30Z</time>
      </trkpt>
      <trkpt lat="43.77624" lon="2.249">
        <ele>342</ele>
        <time>2016-10-12T12:15:48Z</time>
      </trkpt>
      <trkpt lat="43.77614" lon="2.24896">
        <ele>341</ele>
        <time>2016-10-12T12:15:57Z</time>
      </trkpt>
      <trkpt lat="43.77587" lon="2.24888">
        <ele>340</ele>
        <time>2016-10-12T12:16:18Z</time>
      </trkpt>
      <trkpt lat="43.77565" lon="2.24881">
        <ele>340</ele>
        <time>2016-10-12T12:16:36Z</time>
      </trkpt>
      <trkpt lat="43.77538" lon="2.24876">
        <ele>340</ele>
        <time>2016-10-12T12:16:57Z</time>
      </trkpt>
      <trkpt lat="43.77514" lon="2.2487">
        <ele>339</ele>
        <time>2016-10-12T12:17:17Z</time>
      </trkpt>
      <trkpt lat="43.77491" lon="2.24862">
        <ele>339</ele>
        <time>2016-10-12T12:17:35Z</time>
      </trkpt>
      <trkpt lat="43.77472" lon="2.24857">
        <ele>339</ele>
        <time>2016-10-12T12:17:51Z</time>
      </trkpt>
      <trkpt lat="43.77449" lon="2.2485">
        <ele>338</ele>
        <time>2016-10-12T12:18:10Z</time>
      </trkpt>
      <trkpt lat="43.77428" lon="2.24849">
        <ele>337</ele>
        <time>2016-10-12T12:18:27Z</time>
      </trkpt>
      <trkpt lat="43.77419" lon="2.24851">
        <ele>337</ele>
        <time>2016-10-12T12:18:33Z</time>
      </trkpt>
      <trkpt lat="43.77395" lon="2.24852">
        <ele>337</ele>
        <time>2016-10-12T12:18:51Z</time>
      </trkpt>
      <trkpt lat="43.77374" lon="2.24844">
        <ele>337</ele>
        <time>2016-10-12T12:19:08Z</time>
      </trkpt>
      <trkpt lat="43.77348" lon="2.24838">
        <ele>335</ele>
        <time>2016-10-12T12:19:28Z</time>
      </trkpt>
      <trkpt lat="43.77345" lon="2.24837">
        <ele>335</ele>
        <time>2016-10-12T12:19:30Z</time>
      </trkpt>
      <trkpt lat="43.7734" lon="2.24835">
        <ele>334</ele>
        <time>2016-10-12T12:19:34Z</time>
      </trkpt>
      <trkpt lat="43.77318" lon="2.2483">
        <ele>332</ele>
        <time>2016-10-12T12:19:51Z</time>
      </trkpt>
      <trkpt lat="43.77296" lon="2.24823">
        <ele>328</ele>
        <time>2016-10-12T12:20:08Z</time>
      </trkpt>
      <trkpt lat="43.77274" lon="2.24819">
        <ele>325</ele>
        <time>2016-10-12T12:20:26Z</time>
      </trkpt>
      <trkpt lat="43.77254" lon="2.24813">
        <ele>323</ele>
        <time>2016-10-12T12:20:41Z</time>
      </trkpt>
      <trkpt lat="43.77234" lon="2.24805">
        <ele>322</ele>
        <time>2016-10-12T12:20:57Z</time>
      </trkpt>
      <trkpt lat="43.77213" lon="2.24798">
        <ele>321</ele>
        <time>2016-10-12T12:21:13Z</time>
      </trkpt>
      <trkpt lat="43.7719" lon="2.24789">
        <ele>319</ele>
        <time>2016-10-12T12:21:32Z</time>
      </trkpt>
      <trkpt lat="43.77166" lon="2.24777">
        <ele>319</ele>
        <time>2016-10-12T12:21:51Z</time>
      </trkpt>
      <trkpt lat="43.77145" lon="2.24764">
        <ele>318</ele>
        <time>2016-10-12T12:22:10Z</time>
      </trkpt>
      <trkpt lat="43.77122" lon="2.24749">
        <ele>317</ele>
        <time>2016-10-12T12:22:29Z</time>
      </trkpt>
      <trkpt lat="43.77102" lon="2.24736">
        <ele>316</ele>
        <time>2016-10-12T12:22:45Z</time>
      </trkpt>
      <trkpt lat="43.77081" lon="2.24721">
        <ele>315</ele>
        <time>2016-10-12T12:23:04Z</time>
      </trkpt>
      <trkpt lat="43.77061" lon="2.24701">
        <ele>314</ele>
        <time>2016-10-12T12:23:23Z</time>
      </trkpt>
      <trkpt lat="43.77046" lon="2.24684">
        <ele>312</ele>
        <time>2016-10-12T12:23:39Z</time>
      </trkpt>
      <trkpt lat="43.77025" lon="2.24661">
        <ele>311</ele>
        <time>2016-10-12T12:23:59Z</time>
      </trkpt>
      <trkpt lat="43.77006" lon="2.24643">
        <ele>310</ele>
        <time>2016-10-12T12:24:18Z</time>
      </trkpt>
      <trkpt lat="43.76993" lon="2.24627">
        <ele>309</ele>
        <time>2016-10-12T12:24:34Z</time>
      </trkpt>
      <trkpt lat="43.76992" lon="2.24626">
        <ele>309</ele>
        <time>2016-10-12T12:24:35Z</time>
      </trkpt>
      <trkpt lat="43.76978" lon="2.24609">
        <ele>308</ele>
        <time>2016-10-12T12:24:52Z</time>
      </trkpt>
      <trkpt lat="43.76961" lon="2.24594">
        <ele>308</ele>
        <time>2016-10-12T12:25:07Z</time>
      </trkpt>
      <trkpt lat="43.76938" lon="2.24575">
        <ele>307</ele>
        <time>2016-10-12T12:25:29Z</time>
      </trkpt>
      <trkpt lat="43.76933" lon="2.24571">
        <ele>307</ele>
        <time>2016-10-12T12:25:33Z</time>
      </trkpt>
      <trkpt lat="43.76913" lon="2.24557">
        <ele>307</ele>
        <time>2016-10-12T12:25:50Z</time>
      </trkpt>
      <trkpt lat="43.7689" lon="2.24541">
        <ele>306</ele>
        <time>2016-10-12T12:26:12Z</time>
      </trkpt>
      <trkpt lat="43.76872" lon="2.24531">
        <ele>305</ele>
        <time>2016-10-12T12:26:30Z</time>
      </trkpt>
      <trkpt lat="43.7685" lon="2.24516">
        <ele>304</ele>
        <time>2016-10-12T12:26:51Z</time>
      </trkpt>
      <trkpt lat="43.76827" lon="2.24508">
        <ele>303</ele>
        <time>2016-10-12T12:27:10Z</time>
      </trkpt>
      <trkpt lat="43.76803" lon="2.24499">
        <ele>303</ele>
        <time>2016-10-12T12:27:31Z</time>
      </trkpt>
      <trkpt lat="43.76784" lon="2.24495">
        <ele>303</ele>
        <time>2016-10-12T12:27:48Z</time>
      </trkpt>
      <trkpt lat="43.76762" lon="2.2449">
        <ele>302</ele>
        <time>2016-10-12T12:28:08Z</time>
      </trkpt>
      <trkpt lat="43.76741" lon="2.24481">
        <ele>301</ele>
        <time>2016-10-12T12:28:26Z</time>
      </trkpt>
      <trkpt lat="43.76721" lon="2.24466">
        <ele>299</ele>
        <time>2016-10-12T12:28:46Z</time>
      </trkpt>
      <trkpt lat="43.76707" lon="2.24453">
        <ele>298</ele>
        <time>2016-10-12T12:29:01Z</time>
      </trkpt>
      <trkpt lat="43.76687" lon="2.24437">
        <ele>296</ele>
        <time>2016-10-12T12:29:19Z</time>
      </trkpt>
      <trkpt lat="43.76668" lon="2.24421">
        <ele>295</ele>
        <time>2016-10-12T12:29:38Z</time>
      </trkpt>
      <trkpt lat="43.7665" lon="2.24411">
        <ele>293</ele>
        <time>2016-10-12T12:29:54Z</time>
      </trkpt>
      <trkpt lat="43.76628" lon="2.24397">
        <ele>291</ele>
        <time>2016-10-12T12:30:15Z</time>
      </trkpt>
      <trkpt lat="43.76605" lon="2.24384">
        <ele>290</ele>
        <time>2016-10-12T12:30:34Z</time>
      </trkpt>
      <trkpt lat="43.76588" lon="2.24372">
        <ele>289</ele>
        <time>2016-10-12T12:30:50Z</time>
      </trkpt>
      <trkpt lat="43.76568" lon="2.24358">
        <ele>289</ele>
        <time>2016-10-12T12:31:09Z</time>
      </trkpt>
      <trkpt lat="43.7655" lon="2.24347">
        <ele>288</ele>
        <time>2016-10-12T12:31:26Z</time>
      </trkpt>
      <trkpt lat="43.76542" lon="2.2434">
        <ele>288</ele>
        <time>2016-10-12T12:31:43Z</time>
      </trkpt>
      <trkpt lat="43.76543" lon="2.24334">
        <ele>288</ele>
        <time>2016-10-12T12:31:50Z</time>
      </trkpt>
      <trkpt lat="43.76548" lon="2.24302">
        <ele>289</ele>
        <time>2016-10-12T12:32:10Z</time>
      </trkpt>
      <trkpt lat="43.76553" lon="2.24285">
        <ele>289</ele>
        <time>2016-10-12T12:32:25Z</time>
      </trkpt>
      <trkpt lat="43.76564" lon="2.24254">
        <ele>289</ele>
        <time>2016-10-12T12:32:44Z</time>
      </trkpt>
      <trkpt lat="43.76572" lon="2.24225">
        <ele>289</ele>
        <time>2016-10-12T12:33:02Z</time>
      </trkpt>
      <trkpt lat="43.76581" lon="2.24195">
        <ele>288</ele>
        <time>2016-10-12T12:33:21Z</time>
      </trkpt>
      <trkpt lat="43.76592" lon="2.24164">
        <ele>287</ele>
        <time>2016-10-12T12:33:41Z</time>
      </trkpt>
      <trkpt lat="43.76603" lon="2.24139">
        <ele>285</ele>
        <time>2016-10-12T12:33:58Z</time>
      </trkpt>
      <trkpt lat="43.76616" lon="2.24111">
        <ele>283</ele>
        <time>2016-10-12T12:34:17Z</time>
      </trkpt>
      <trkpt lat="43.76627" lon="2.24086">
        <ele>281</ele>
        <time>2016-10-12T12:34:34Z</time>
      </trkpt>
      <trkpt lat="43.7664" lon="2.24053">
        <ele>278</ele>
        <time>2016-10-12T12:34:55Z</time>
      </trkpt>
      <trkpt lat="43.76654" lon="2.24031">
        <ele>276</ele>
        <time>2016-10-12T12:35:12Z</time>
      </trkpt>
      <trkpt lat="43.76659" lon="2.24027">
        <ele>275</ele>
        <time>2016-10-12T12:35:17Z</time>
      </trkpt>
      <trkpt lat="43.76678" lon="2.24019">
        <ele>275</ele>
        <time>2016-10-12T12:35:33Z</time>
      </trkpt>
      <trkpt lat="43.76701" lon="2.24009">
        <ele>275</ele>
        <time>2016-10-12T12:35:52Z</time>
      </trkpt>
      <trkpt lat="43.76723" lon="2.23999">
        <ele>275</ele>
        <time>2016-10-12T12:36:11Z</time>
      </trkpt>
      <trkpt lat="43.76738" lon="2.23982">
        <ele>276</ele>
        <time>2016-10-12T12:36:28Z</time>
      </trkpt>
      <trkpt lat="43.76752" lon="2.2396">
        <ele>276</ele>
        <time>2016-10-12T12:36:45Z</time>
      </trkpt>
      <trkpt lat="43.76771" lon="2.23942">
        <ele>277</ele>
        <time>2016-10-12T12:37:03Z</time>
      </trkpt>
      <trkpt lat="43.76792" lon="2.23923">
        <ele>278</ele>
        <time>2016-10-12T12:37:23Z</time>
      </trkpt>
      <trkpt lat="43.76808" lon="2.23901">
        <ele>277</ele>
        <time>2016-10-12T12:37:42Z</time>
      </trkpt>
      <trkpt lat="43.7682" lon="2.23891">
        <ele>276</ele>
        <time>2016-10-12T12:37:53Z</time>
      </trkpt>
      <trkpt lat="43.76837" lon="2.2388">
        <ele>275</ele>
        <time>2016-10-12T12:38:09Z</time>
      </trkpt>
      <trkpt lat="43.76855" lon="2.23862">
        <ele>272</ele>
        <time>2016-10-12T12:38:26Z</time>
      </trkpt>
      <trkpt lat="43.76858" lon="2.23857">
        <ele>271</ele>
        <time>2016-10-12T12:38:31Z</time>
      </trkpt>
      <trkpt lat="43.76861" lon="2.23851">
        <ele>270</ele>
        <time>2016-10-12T12:38:35Z</time>
      </trkpt>
      <trkpt lat="43.76872" lon="2.23835">
        <ele>268</ele>
        <time>2016-10-12T12:38:49Z</time>
      </trkpt>
      <trkpt lat="43.76878" lon="2.23825">
        <ele>266</ele>
        <time>2016-10-12T12:38:56Z</time>
      </trkpt>
      <trkpt lat="43.76886" lon="2.23795">
        <ele>262</ele>
        <time>2016-10-12T12:39:13Z</time>
      </trkpt>
      <trkpt lat="43.76892" lon="2.23774">
        <ele>261</ele>
        <time>2016-10-12T12:39:25Z</time>
      </trkpt>
      <trkpt lat="43.76895" lon="2.23761">
        <ele>260</ele>
        <time>2016-10-12T12:39:34Z</time>
      </trkpt>
      <trkpt lat="43.76897" lon="2.23752">
        <ele>259</ele>
        <time>2016-10-12T12:39:49Z</time>
      </trkpt>
      <trkpt lat="43.76899" lon="2.23721">
        <ele>257</ele>
        <time>2016-10-12T12:40:06Z</time>
      </trkpt>
      <trkpt lat="43.76899" lon="2.23714">
        <ele>257</ele>
        <time>2016-10-12T12:40:11Z</time>
      </trkpt>
      <trkpt lat="43.769" lon="2.23705">
        <ele>257</ele>
        <time>2016-10-12T12:40:16Z</time>
      </trkpt>
      <trkpt lat="43.76897" lon="2.237">
        <ele>256</ele>
        <time>2016-10-12T12:40:19Z</time>
      </trkpt>
      <trkpt lat="43.76895" lon="2.23686">
        <ele>255</ele>
        <time>2016-10-12T12:40:34Z</time>
      </trkpt>
      <trkpt lat="43.76893" lon="2.23683">
        <ele>255</ele>
        <time>2016-10-12T12:40:53Z</time>
      </trkpt>
      <trkpt lat="43.76889" lon="2.23669">
        <ele>254</ele>
        <time>2016-10-12T12:41:16Z</time>
      </trkpt>
      <trkpt lat="43.76888" lon="2.23665">
        <ele>253</ele>
        <time>2016-10-12T12:41:19Z</time>
      </trkpt>
      <trkpt lat="43.76884" lon="2.23648">
        <ele>251</ele>
        <time>2016-10-12T12:41:29Z</time>
      </trkpt>
      <trkpt lat="43.76875" lon="2.23633">
        <ele>249</ele>
        <time>2016-10-12T12:41:40Z</time>
      </trkpt>
      <trkpt lat="43.7687" lon="2.23624">
        <ele>248</ele>
        <time>2016-10-12T12:41:46Z</time>
      </trkpt>
      <trkpt lat="43.76859" lon="2.236">
        <ele>245</ele>
        <time>2016-10-12T12:42:02Z</time>
      </trkpt>
      <trkpt lat="43.76848" lon="2.23576">
        <ele>242</ele>
        <time>2016-10-12T12:42:20Z</time>
      </trkpt>
      <trkpt lat="43.76846" lon="2.23573">
        <ele>241</ele>
        <time>2016-10-12T12:42:22Z</time>
      </trkpt>
      <trkpt lat="43.76844" lon="2.23565">
        <ele>240</ele>
        <time>2016-10-12T12:42:27Z</time>
      </trkpt>
      <trkpt lat="43.76843" lon="2.23562">
        <ele>240</ele>
        <time>2016-10-12T12:42:29Z</time>
      </trkpt>
      <trkpt lat="43.76832" lon="2.23537">
        <ele>237</ele>
        <time>2016-10-12T12:42:45Z</time>
      </trkpt>
      <trkpt lat="43.76821" lon="2.23511">
        <ele>234</ele>
        <time>2016-10-12T12:43:01Z</time>
      </trkpt>
      <trkpt lat="43.76809" lon="2.23479">
        <ele>231</ele>
        <time>2016-10-12T12:43:22Z</time>
      </trkpt>
      <trkpt lat="43.76799" lon="2.23451">
        <ele>229</ele>
        <time>2016-10-12T12:43:40Z</time>
      </trkpt>
      <trkpt lat="43.76786" lon="2.2342">
        <ele>227</ele>
        <time>2016-10-12T12:44:00Z</time>
      </trkpt>
      <trkpt lat="43.76784" lon="2.23393">
        <ele>226</ele>
        <time>2016-10-12T12:44:17Z</time>
      </trkpt>
      <trkpt lat="43.76774" lon="2.23366">
        <ele>225</ele>
        <time>2016-10-12T12:44:35Z</time>
      </trkpt>
      <trkpt lat="43.76767" lon="2.23332">
        <ele>224</ele>
        <time>2016-10-12T12:44:55Z</time>
      </trkpt>
      <trkpt lat="43.76763" lon="2.23305">
        <ele>223</ele>
        <time>2016-10-12T12:45:12Z</time>
      </trkpt>
      <trkpt lat="43.76763" lon="2.2328">
        <ele>222</ele>
        <time>2016-10-12T12:45:28Z</time>
      </trkpt>
      <trkpt lat="43.76763" lon="2.2325">
        <ele>220</ele>
        <time>2016-10-12T12:45:45Z</time>
      </trkpt>
      <trkpt lat="43.76766" lon="2.23231">
        <ele>220</ele>
        <time>2016-10-12T12:45:57Z</time>
      </trkpt>
      <trkpt lat="43.76766" lon="2.23222">
        <ele>219</ele>
        <time>2016-10-12T12:46:02Z</time>
      </trkpt>
      <trkpt lat="43.76776" lon="2.23198">
        <ele>219</ele>
        <time>2016-10-12T12:46:20Z</time>
      </trkpt>
      <trkpt lat="43.7678" lon="2.23174">
        <ele>218</ele>
        <time>2016-10-12T12:46:35Z</time>
      </trkpt>
      <trkpt lat="43.76784" lon="2.23143">
        <ele>215</ele>
        <time>2016-10-12T12:46:53Z</time>
      </trkpt>
      <trkpt lat="43.76786" lon="2.23109">
        <ele>211</ele>
        <time>2016-10-12T12:47:13Z</time>
      </trkpt>
      <trkpt lat="43.76787" lon="2.23089">
        <ele>210</ele>
        <time>2016-10-12T12:47:26Z</time>
      </trkpt>
      <trkpt lat="43.7679" lon="2.23058">
        <ele>207</ele>
        <time>2016-10-12T12:47:44Z</time>
      </trkpt>
      <trkpt lat="43.76793" lon="2.23028">
        <ele>206</ele>
        <time>2016-10-12T12:48:02Z</time>
      </trkpt>
      <trkpt lat="43.76797" lon="2.23007">
        <ele>206</ele>
        <time>2016-10-12T12:48:17Z</time>
      </trkpt>
      <trkpt lat="43.76797" lon="2.22998">
        <ele>206</ele>
        <time>2016-10-12T12:48:31Z</time>
      </trkpt>
      <trkpt lat="43.76797" lon="2.22998">
        <ele>206</ele>
        <time>2016-10-12T12:48:59Z</time>
      </trkpt>
      <trkpt lat="43.76797" lon="2.22997">
        <ele>206</ele>
        <time>2016-10-12T12:49:20Z</time>
      </trkpt>
      <trkpt lat="43.76795" lon="2.22995">
        <ele>205</ele>
        <time>2016-10-12T12:49:38Z</time>
      </trkpt>
      <trkpt lat="43.76796" lon="2.22993">
        <ele>205</ele>
        <time>2016-10-12T12:50:53Z</time>
      </trkpt>
      <trkpt lat="43.76791" lon="2.22977">
        <ele>205</ele>
        <time>2016-10-12T12:51:11Z</time>
      </trkpt>
      <trkpt lat="43.76781" lon="2.22955">
        <ele>204</ele>
        <time>2016-10-12T12:51:28Z</time>
      </trkpt>
      <trkpt lat="43.76773" lon="2.22936">
        <ele>203</ele>
        <time>2016-10-12T12:51:46Z</time>
      </trkpt>
      <trkpt lat="43.76759" lon="2.22922">
        <ele>203</ele>
        <time>2016-10-12T12:52:07Z</time>
      </trkpt>
      <trkpt lat="43.76753" lon="2.22913">
        <ele>203</ele>
        <time>2016-10-12T12:52:24Z</time>
      </trkpt>
      <trkpt lat="43.76748" lon="2.22908">
        <ele>202</ele>
        <time>2016-10-12T12:52:31Z</time>
      </trkpt>
      <trkpt lat="43.76744" lon="2.22907">
        <ele>202</ele>
        <time>2016-10-12T12:52:35Z</time>
      </trkpt>
      <trkpt lat="43.76728" lon="2.22894">
        <ele>201</ele>
        <time>2016-10-12T12:52:53Z</time>
      </trkpt>
      <trkpt lat="43.76709" lon="2.22891">
        <ele>201</ele>
        <time>2016-10-12T12:53:11Z</time>
      </trkpt>
      <trkpt lat="43.76703" lon="2.22893">
        <ele>201</ele>
        <time>2016-10-12T12:53:24Z</time>
      </trkpt>
      <trkpt lat="43.76703" lon="2.22893">
        <ele>201</ele>
        <time>2016-10-12T12:53:43Z</time>
      </trkpt>
      <trkpt lat="43.76713" lon="2.22893">
        <ele>201</ele>
        <time>2016-10-12T12:53:55Z</time>
      </trkpt>
      <trkpt lat="43.7673" lon="2.22892">
        <ele>201</ele>
        <time>2016-10-12T12:54:09Z</time>
      </trkpt>
      <trkpt lat="43.76737" lon="2.22869">
        <ele>202</ele>
        <time>2016-10-12T12:54:23Z</time>
      </trkpt>
      <trkpt lat="43.76738" lon="2.22865">
        <ele>202</ele>
        <time>2016-10-12T12:54:26Z</time>
      </trkpt>
      <trkpt lat="43.76741" lon="2.22858">
        <ele>202</ele>
        <time>2016-10-12T12:54:31Z</time>
      </trkpt>
      <trkpt lat="43.76739" lon="2.22836">
        <ele>202</ele>
        <time>2016-10-12T12:54:44Z</time>
      </trkpt>
      <trkpt lat="43.76737" lon="2.22812">
        <ele>201</ele>
        <time>2016-10-12T12:54:59Z</time>
      </trkpt>
      <trkpt lat="43.76734" lon="2.22803">
        <ele>201</ele>
        <time>2016-10-12T12:55:12Z</time>
      </trkpt>
      <trkpt lat="43.76731" lon="2.22802">
        <ele>201</ele>
        <time>2016-10-12T12:55:23Z</time>
      </trkpt>
      <trkpt lat="43.76726" lon="2.228">
        <ele>201</ele>
        <time>2016-10-12T12:55:37Z</time>
      </trkpt>
      <trkpt lat="43.76719" lon="2.22803">
        <ele>201</ele>
        <time>2016-10-12T12:55:57Z</time>
      </trkpt>
      <trkpt lat="43.76717" lon="2.22807">
        <ele>201</ele>
        <time>2016-10-12T12:56:26Z</time>
      </trkpt>
      <trkpt lat="43.76717" lon="2.22808">
        <ele>201</ele>
        <time>2016-10-12T12:56:53Z</time>
      </trkpt>
      <trkpt lat="43.76717" lon="2.22809">
        <ele>201</ele>
        <time>2016-10-12T12:57:14Z</time>
      </trkpt>
      <trkpt lat="43.76718" lon="2.22801">
        <ele>201</ele>
        <time>2016-10-12T12:57:28Z</time>
      </trkpt>
      <trkpt lat="43.76719" lon="2.22801">
        <ele>201</ele>
        <time>2016-10-12T12:57:29Z</time>
      </trkpt>
      <trkpt lat="43.76727" lon="2.22805">
        <ele>201</ele>
        <time>2016-10-12T12:57:46Z</time>
      </trkpt>
      <trkpt lat="43.76732" lon="2.22806">
        <ele>201</ele>
        <time>2016-10-12T12:57:59Z</time>
      </trkpt>
      <trkpt lat="43.76734" lon="2.22806">
        <ele>201</ele>
        <time>2016-10-12T12:58:01Z</time>
      </trkpt>
      <trkpt lat="43.76738" lon="2.22785">
        <ele>201</ele>
        <time>2016-10-12T12:58:16Z</time>
      </trkpt>
      <trkpt lat="43.76738" lon="2.22774">
        <ele>201</ele>
        <time>2016-10-12T12:58:24Z</time>
      </trkpt>
      <trkpt lat="43.76736" lon="2.22752">
        <ele>201</ele>
        <time>2016-10-12T12:58:40Z</time>
      </trkpt>
      <trkpt lat="43.76734" lon="2.22726">
        <ele>201</ele>
        <time>2016-10-12T12:58:57Z</time>
      </trkpt>
      <trkpt lat="43.76732" lon="2.22702">
        <ele>201</ele>
        <time>2016-10-12T12:59:15Z</time>
      </trkpt>
      <trkpt lat="43.76735" lon="2.22678">
        <ele>201</ele>
        <time>2016-10-12T12:59:34Z</time>
      </trkpt>
      <trkpt lat="43.76737" lon="2.22647">
        <ele>201</ele>
        <time>2016-10-12T12:59:53Z</time>
      </trkpt>
      <trkpt lat="43.76739" lon="2.22623">
        <ele>201</ele>
        <time>2016-10-12T13:00:11Z</time>
      </trkpt>
      <trkpt lat="43.76741" lon="2.22612">
        <ele>201</ele>
        <time>2016-10-12T13:00:30Z</time>
      </trkpt>
      <trkpt lat="43.76743" lon="2.22581">
        <ele>201</ele>
        <time>2016-10-12T13:00:49Z</time>
      </trkpt>
      <trkpt lat="43.76747" lon="2.22557">
        <ele>201</ele>
        <time>2016-10-12T13:01:06Z</time>
      </trkpt>
      <trkpt lat="43.7675" lon="2.22534">
        <ele>201</ele>
        <time>2016-10-12T13:01:23Z</time>
      </trkpt>
      <trkpt lat="43.76753" lon="2.22516">
        <ele>201</ele>
        <time>2016-10-12T13:01:39Z</time>
      </trkpt>
      <trkpt lat="43.76757" lon="2.22486">
        <ele>201</ele>
        <time>2016-10-12T13:01:55Z</time>
      </trkpt>
      <trkpt lat="43.76763" lon="2.22461">
        <ele>201</ele>
        <time>2016-10-12T13:02:13Z</time>
      </trkpt>
      <trkpt lat="43.7677" lon="2.22436">
        <ele>201</ele>
        <time>2016-10-12T13:02:29Z</time>
      </trkpt>
      <trkpt lat="43.76771" lon="2.22428">
        <ele>201</ele>
        <time>2016-10-12T13:02:34Z</time>
      </trkpt>
      <trkpt lat="43.76777" lon="2.22404">
        <ele>201</ele>
        <time>2016-10-12T13:02:51Z</time>
      </trkpt>
      <trkpt lat="43.76779" lon="2.22399">
        <ele>201</ele>
        <time>2016-10-12T13:02:55Z</time>
      </trkpt>
      <trkpt lat="43.76787" lon="2.2237">
        <ele>200</ele>
        <time>2016-10-12T13:03:13Z</time>
      </trkpt>
      <trkpt lat="43.76796" lon="2.22346">
        <ele>200</ele>
        <time>2016-10-12T13:03:29Z</time>
      </trkpt>
      <trkpt lat="43.76799" lon="2.2234">
        <ele>200</ele>
        <time>2016-10-12T13:03:33Z</time>
      </trkpt>
      <trkpt lat="43.76804" lon="2.22322">
        <ele>200</ele>
        <time>2016-10-12T13:03:44Z</time>
      </trkpt>
      <trkpt lat="43.7681" lon="2.22291">
        <ele>200</ele>
        <time>2016-10-12T13:04:01Z</time>
      </trkpt>
      <trkpt lat="43.76816" lon="2.22262">
        <ele>199</ele>
        <time>2016-10-12T13:04:18Z</time>
      </trkpt>
      <trkpt lat="43.76824" lon="2.22231">
        <ele>199</ele>
        <time>2016-10-12T13:04:36Z</time>
      </trkpt>
      <trkpt lat="43.76825" lon="2.22219">
        <ele>199</ele>
        <time>2016-10-12T13:04:43Z</time>
      </trkpt>
      <trkpt lat="43.76832" lon="2.22179">
        <ele>199</ele>
        <time>2016-10-12T13:05:04Z</time>
      </trkpt>
      <trkpt lat="43.76837" lon="2.22151">
        <ele>199</ele>
        <time>2016-10-12T13:05:22Z</time>
      </trkpt>
      <trkpt lat="43.7684" lon="2.22132">
        <ele>199</ele>
        <time>2016-10-12T13:05:38Z</time>
      </trkpt>
      <trkpt lat="43.7684" lon="2.22132">
        <ele>199</ele>
        <time>2016-10-12T13:06:04Z</time>
      </trkpt>
      <trkpt lat="43.76843" lon="2.22123">
        <ele>199</ele>
        <time>2016-10-12T13:06:17Z</time>
      </trkpt>
      <trkpt lat="43.7685" lon="2.22083">
        <ele>199</ele>
        <time>2016-10-12T13:06:36Z</time>
      </trkpt>
      <trkpt lat="43.76856" lon="2.22052">
        <ele>199</ele>
        <time>2016-10-12T13:06:55Z</time>
      </trkpt>
      <trkpt lat="43.76866" lon="2.22017">
        <ele>199</ele>
        <time>2016-10-12T13:07:15Z</time>
      </trkpt>
      <trkpt lat="43.76871" lon="2.21988">
        <ele>199</ele>
        <time>2016-10-12T13:07:33Z</time>
      </trkpt>
      <trkpt lat="43.76874" lon="2.21977">
        <ele>199</ele>
        <time>2016-10-12T13:07:51Z</time>
      </trkpt>
      <trkpt lat="43.76868" lon="2.21959">
        <ele>199</ele>
        <time>2016-10-12T13:08:36Z</time>
      </trkpt>
      <trkpt lat="43.76858" lon="2.21944">
        <ele>199</ele>
        <time>2016-10-12T13:08:51Z</time>
      </trkpt>
      <trkpt lat="43.7684" lon="2.21926">
        <ele>199</ele>
        <time>2016-10-12T13:09:10Z</time>
      </trkpt>
      <trkpt lat="43.76821" lon="2.21914">
        <ele>199</ele>
        <time>2016-10-12T13:09:29Z</time>
      </trkpt>
      <trkpt lat="43.76803" lon="2.21905">
        <ele>199</ele>
        <time>2016-10-12T13:09:46Z</time>
      </trkpt>
      <trkpt lat="43.76781" lon="2.21892">
        <ele>198</ele>
        <time>2016-10-12T13:10:04Z</time>
      </trkpt>
      <trkpt lat="43.76759" lon="2.2189">
        <ele>198</ele>
        <time>2016-10-12T13:10:22Z</time>
      </trkpt>
      <trkpt lat="43.76743" lon="2.21894">
        <ele>198</ele>
        <time>2016-10-12T13:10:39Z</time>
      </trkpt>
      <trkpt lat="43.76741" lon="2.21892">
        <ele>198</ele>
        <time>2016-10-12T13:10:41Z</time>
      </trkpt>
      <trkpt lat="43.76733" lon="2.21868">
        <ele>198</ele>
        <time>2016-10-12T13:10:59Z</time>
      </trkpt>
      <trkpt lat="43.76724" lon="2.21848">
        <ele>198</ele>
        <time>2016-10-12T13:11:15Z</time>
      </trkpt>
      <trkpt lat="43.76709" lon="2.21824">
        <ele>198</ele>
        <time>2016-10-12T13:11:32Z</time>
      </trkpt>
      <trkpt lat="43.76698" lon="2.21807">
        <ele>198</ele>
        <time>2016-10-12T13:11:45Z</time>
      </trkpt>
      <trkpt lat="43.7668" lon="2.21782">
        <ele>198</ele>
        <time>2016-10-12T13:12:04Z</time>
      </trkpt>
      <trkpt lat="43.76665" lon="2.21754">
        <ele>197</ele>
        <time>2016-10-12T13:12:25Z</time>
      </trkpt>
      <trkpt lat="43.7665" lon="2.21732">
        <ele>197</ele>
        <time>2016-10-12T13:12:42Z</time>
      </trkpt>
      <trkpt lat="43.76648" lon="2.21728">
        <ele>197</ele>
        <time>2016-10-12T13:12:45Z</time>
      </trkpt>
      <trkpt lat="43.7665" lon="2.21694">
        <ele>196</ele>
        <time>2016-10-12T13:13:04Z</time>
      </trkpt>
      <trkpt lat="43.76654" lon="2.21665">
        <ele>196</ele>
        <time>2016-10-12T13:13:21Z</time>
      </trkpt>
      <trkpt lat="43.76656" lon="2.21657">
        <ele>196</ele>
        <time>2016-10-12T13:13:26Z</time>
      </trkpt>
      <trkpt lat="43.76656" lon="2.2165">
        <ele>196</ele>
        <time>2016-10-12T13:13:31Z</time>
      </trkpt>
      <trkpt lat="43.76661" lon="2.21605">
        <ele>196</ele>
        <time>2016-10-12T13:13:56Z</time>
      </trkpt>
      <trkpt lat="43.76667" lon="2.21565">
        <ele>196</ele>
        <time>2016-10-12T13:14:19Z</time>
      </trkpt>
      <trkpt lat="43.76672" lon="2.21529">
        <ele>197</ele>
        <time>2016-10-12T13:14:41Z</time>
      </trkpt>
      <trkpt lat="43.76676" lon="2.21492">
        <ele>197</ele>
        <time>2016-10-12T13:15:04Z</time>
      </trkpt>
      <trkpt lat="43.7668" lon="2.2146">
        <ele>198</ele>
        <time>2016-10-12T13:15:24Z</time>
      </trkpt>
      <trkpt lat="43.76681" lon="2.21432">
        <ele>198</ele>
        <time>2016-10-12T13:15:41Z</time>
      </trkpt>
      <trkpt lat="43.76683" lon="2.21405">
        <ele>198</ele>
        <time>2016-10-12T13:15:59Z</time>
      </trkpt>
      <trkpt lat="43.76683" lon="2.214">
        <ele>198</ele>
        <time>2016-10-12T13:16:02Z</time>
      </trkpt>
      <trkpt lat="43.76683" lon="2.2137">
        <ele>198</ele>
        <time>2016-10-12T13:16:22Z</time>
      </trkpt>
      <trkpt lat="43.76685" lon="2.21343">
        <ele>198</ele>
        <time>2016-10-12T13:16:38Z</time>
      </trkpt>
      <trkpt lat="43.76685" lon="2.21313">
        <ele>198</ele>
        <time>2016-10-12T13:16:56Z</time>
      </trkpt>
      <trkpt lat="43.76687" lon="2.21284">
        <ele>198</ele>
        <time>2016-10-12T13:17:13Z</time>
      </trkpt>
      <trkpt lat="43.76687" lon="2.2128">
        <ele>198</ele>
        <time>2016-10-12T13:17:16Z</time>
      </trkpt>
      <trkpt lat="43.76685" lon="2.21258">
        <ele>198</ele>
        <time>2016-10-12T13:17:31Z</time>
      </trkpt>
      <trkpt lat="43.76676" lon="2.21233">
        <ele>198</ele>
        <time>2016-10-12T13:17:48Z</time>
      </trkpt>
      <trkpt lat="43.76668" lon="2.21203">
        <ele>198</ele>
        <time>2016-10-12T13:18:08Z</time>
      </trkpt>
      <trkpt lat="43.76659" lon="2.21174">
        <ele>198</ele>
        <time>2016-10-12T13:18:28Z</time>
      </trkpt>
      <trkpt lat="43.76654" lon="2.2115">
        <ele>198</ele>
        <time>2016-10-12T13:18:43Z</time>
      </trkpt>
      <trkpt lat="43.76645" lon="2.2112">
        <ele>198</ele>
        <time>2016-10-12T13:19:02Z</time>
      </trkpt>
      <trkpt lat="43.76635" lon="2.2109">
        <ele>198</ele>
        <time>2016-10-12T13:19:22Z</time>
      </trkpt>
      <trkpt lat="43.76624" lon="2.21052">
        <ele>198</ele>
        <time>2016-10-12T13:19:45Z</time>
      </trkpt>
      <trkpt lat="43.76615" lon="2.21022">
        <ele>198</ele>
        <time>2016-10-12T13:20:02Z</time>
      </trkpt>
      <trkpt lat="43.76609" lon="2.20996">
        <ele>198</ele>
        <time>2016-10-12T13:20:18Z</time>
      </trkpt>
      <trkpt lat="43.766" lon="2.20961">
        <ele>198</ele>
        <time>2016-10-12T13:20:39Z</time>
      </trkpt>
      <trkpt lat="43.76592" lon="2.20935">
        <ele>198</ele>
        <time>2016-10-12T13:20:56Z</time>
      </trkpt>
      <trkpt lat="43.76584" lon="2.20908">
        <ele>198</ele>
        <time>2016-10-12T13:21:12Z</time>
      </trkpt>
      <trkpt lat="43.76577" lon="2.20881">
        <ele>198</ele>
        <time>2016-10-12T13:21:29Z</time>
      </trkpt>
      <trkpt lat="43.7657" lon="2.20857">
        <ele>198</ele>
        <time>2016-10-12T13:21:44Z</time>
      </trkpt>
      <trkpt lat="43.76561" lon="2.20824">
        <ele>198</ele>
        <time>2016-10-12T13:22:04Z</time>
      </trkpt>
      <trkpt lat="43.76552" lon="2.20796">
        <ele>198</ele>
        <time>2016-10-12T13:22:22Z</time>
      </trkpt>
      <trkpt lat="43.76543" lon="2.20768">
        <ele>198</ele>
        <time>2016-10-12T13:22:39Z</time>
      </trkpt>
      <trkpt lat="43.76531" lon="2.20732">
        <ele>198</ele>
        <time>2016-10-12T13:23:01Z</time>
      </trkpt>
      <trkpt lat="43.76523" lon="2.20699">
        <ele>198</ele>
        <time>2016-10-12T13:23:23Z</time>
      </trkpt>
      <trkpt lat="43.76512" lon="2.20674">
        <ele>198</ele>
        <time>2016-10-12T13:23:41Z</time>
      </trkpt>
      <trkpt lat="43.76497" lon="2.20648">
        <ele>198</ele>
        <time>2016-10-12T13:24:00Z</time>
      </trkpt>
      <trkpt lat="43.76477" lon="2.20629">
        <ele>198</ele>
        <time>2016-10-12T13:24:21Z</time>
      </trkpt>
      <trkpt lat="43.76467" lon="2.20617">
        <ele>198</ele>
        <time>2016-10-12T13:24:41Z</time>
      </trkpt>
      <trkpt lat="43.76459" lon="2.2061">
        <ele>198</ele>
        <time>2016-10-12T13:25:05Z</time>
      </trkpt>
      <trkpt lat="43.76445" lon="2.20601">
        <ele>198</ele>
        <time>2016-10-12T13:25:21Z</time>
      </trkpt>
      <trkpt lat="43.76425" lon="2.20588">
        <ele>198</ele>
        <time>2016-10-12T13:25:41Z</time>
      </trkpt>
      <trkpt lat="43.76401" lon="2.2057">
        <ele>198</ele>
        <time>2016-10-12T13:26:03Z</time>
      </trkpt>
      <trkpt lat="43.76378" lon="2.20555">
        <ele>199</ele>
        <time>2016-10-12T13:26:24Z</time>
      </trkpt>
      <trkpt lat="43.76356" lon="2.20537">
        <ele>199</ele>
        <time>2016-10-12T13:26:45Z</time>
      </trkpt>
      <trkpt lat="43.76334" lon="2.20522">
        <ele>199</ele>
        <time>2016-10-12T13:27:06Z</time>
      </trkpt>
      <trkpt lat="43.76314" lon="2.20506">
        <ele>199</ele>
        <time>2016-10-12T13:27:26Z</time>
      </trkpt>
      <trkpt lat="43.76295" lon="2.20481">
        <ele>198</ele>
        <time>2016-10-12T13:27:47Z</time>
      </trkpt>
      <trkpt lat="43.76286" lon="2.20452">
        <ele>198</ele>
        <time>2016-10-12T13:28:06Z</time>
      </trkpt>
      <trkpt lat="43.76282" lon="2.20422">
        <ele>198</ele>
        <time>2016-10-12T13:28:23Z</time>
      </trkpt>
      <trkpt lat="43.76277" lon="2.20394">
        <ele>198</ele>
        <time>2016-10-12T13:28:41Z</time>
      </trkpt>
      <trkpt lat="43.76274" lon="2.20367">
        <ele>198</ele>
        <time>2016-10-12T13:28:57Z</time>
      </trkpt>
      <trkpt lat="43.76281" lon="2.20346">
        <ele>198</ele>
        <time>2016-10-12T13:29:15Z</time>
      </trkpt>
      <trkpt lat="43.76289" lon="2.20343">
        <ele>198</ele>
        <time>2016-10-12T13:29:22Z</time>
      </trkpt>
      <trkpt lat="43.76313" lon="2.20334">
        <ele>198</ele>
        <time>2016-10-12T13:29:43Z</time>
      </trkpt>
      <trkpt lat="43.76334" lon="2.20324">
        <ele>198</ele>
        <time>2016-10-12T13:30:02Z</time>
      </trkpt>
      <trkpt lat="43.76361" lon="2.20314">
        <ele>198</ele>
        <time>2016-10-12T13:30:23Z</time>
      </trkpt>
      <trkpt lat="43.76382" lon="2.20299">
        <ele>198</ele>
        <time>2016-10-12T13:30:42Z</time>
      </trkpt>
      <trkpt lat="43.76389" lon="2.20267">
        <ele>198</ele>
        <time>2016-10-12T13:31:02Z</time>
      </trkpt>
      <trkpt lat="43.76384" lon="2.20234">
        <ele>198</ele>
        <time>2016-10-12T13:31:22Z</time>
      </trkpt>
      <trkpt lat="43.76378" lon="2.20203">
        <ele>198</ele>
        <time>2016-10-12T13:31:41Z</time>
      </trkpt>
      <trkpt lat="43.76377" lon="2.20194">
        <ele>198</ele>
        <time>2016-10-12T13:31:46Z</time>
      </trkpt>
      <trkpt lat="43.76365" lon="2.20166">
        <ele>198</ele>
        <time>2016-10-12T13:32:06Z</time>
      </trkpt>
      <trkpt lat="43.76346" lon="2.20141">
        <ele>198</ele>
        <time>2016-10-12T13:32:27Z</time>
      </trkpt>
      <trkpt lat="43.76328" lon="2.20121">
        <ele>198</ele>
        <time>2016-10-12T13:32:46Z</time>
      </trkpt>
      <trkpt lat="43.76323" lon="2.20112">
        <ele>198</ele>
        <time>2016-10-12T13:32:52Z</time>
      </trkpt>
      <trkpt lat="43.76323" lon="2.20076">
        <ele>198</ele>
        <time>2016-10-12T13:33:12Z</time>
      </trkpt>
      <trkpt lat="43.76329" lon="2.20047">
        <ele>198</ele>
        <time>2016-10-12T13:33:29Z</time>
      </trkpt>
      <trkpt lat="43.76333" lon="2.20027">
        <ele>198</ele>
        <time>2016-10-12T13:33:44Z</time>
      </trkpt>
      <trkpt lat="43.76338" lon="2.20001">
        <ele>198</ele>
        <time>2016-10-12T13:34:02Z</time>
      </trkpt>
      <trkpt lat="43.76344" lon="2.19976">
        <ele>197</ele>
        <time>2016-10-12T13:34:17Z</time>
      </trkpt>
      <trkpt lat="43.7635" lon="2.1995">
        <ele>197</ele>
        <time>2016-10-12T13:34:34Z</time>
      </trkpt>
      <trkpt lat="43.7636" lon="2.1992">
        <ele>197</ele>
        <time>2016-10-12T13:34:53Z</time>
      </trkpt>
      <trkpt lat="43.76374" lon="2.19897">
        <ele>197</ele>
        <time>2016-10-12T13:35:11Z</time>
      </trkpt>
      <trkpt lat="43.76382" lon="2.19884">
        <ele>197</ele>
        <time>2016-10-12T13:35:22Z</time>
      </trkpt>
      <trkpt lat="43.76397" lon="2.19863">
        <ele>197</ele>
        <time>2016-10-12T13:35:40Z</time>
      </trkpt>
      <trkpt lat="43.76411" lon="2.19842">
        <ele>197</ele>
        <time>2016-10-12T13:35:57Z</time>
      </trkpt>
      <trkpt lat="43.7643" lon="2.19818">
        <ele>197</ele>
        <time>2016-10-12T13:36:17Z</time>
      </trkpt>
      <trkpt lat="43.76449" lon="2.19797">
        <ele>196</ele>
        <time>2016-10-12T13:36:39Z</time>
      </trkpt>
      <trkpt lat="43.76465" lon="2.19782">
        <ele>196</ele>
        <time>2016-10-12T13:36:56Z</time>
      </trkpt>
      <trkpt lat="43.76479" lon="2.19772">
        <ele>196</ele>
        <time>2016-10-12T13:37:11Z</time>
      </trkpt>
      <trkpt lat="43.76482" lon="2.1977">
        <ele>196</ele>
        <time>2016-10-12T13:37:14Z</time>
      </trkpt>
      <trkpt lat="43.76491" lon="2.19763">
        <ele>196</ele>
        <time>2016-10-12T13:37:23Z</time>
      </trkpt>
      <trkpt lat="43.76511" lon="2.19749">
        <ele>196</ele>
        <time>2016-10-12T13:37:42Z</time>
      </trkpt>
      <trkpt lat="43.76531" lon="2.19733">
        <ele>195</ele>
        <time>2016-10-12T13:38:01Z</time>
      </trkpt>
      <trkpt lat="43.76537" lon="2.1973">
        <ele>195</ele>
        <time>2016-10-12T13:38:18Z</time>
      </trkpt>
      <trkpt lat="43.76537" lon="2.1973">
        <ele>195</ele>
        <time>2016-10-12T13:38:22Z</time>
      </trkpt>
      <trkpt lat="43.76548" lon="2.1972">
        <ele>195</ele>
        <time>2016-10-12T13:38:40Z</time>
      </trkpt>
      <trkpt lat="43.76549" lon="2.19718">
        <ele>195</ele>
        <time>2016-10-12T13:38:55Z</time>
      </trkpt>
      <trkpt lat="43.76549" lon="2.19717">
        <ele>195</ele>
        <time>2016-10-12T13:39:14Z</time>
      </trkpt>
      <trkpt lat="43.76556" lon="2.19709">
        <ele>195</ele>
        <time>2016-10-12T13:39:34Z</time>
      </trkpt>
      <trkpt lat="43.76579" lon="2.19692">
        <ele>195</ele>
        <time>2016-10-12T13:39:53Z</time>
      </trkpt>
      <trkpt lat="43.76601" lon="2.19673">
        <ele>195</ele>
        <time>2016-10-12T13:40:14Z</time>
      </trkpt>
      <trkpt lat="43.76621" lon="2.19658">
        <ele>194</ele>
        <time>2016-10-12T13:40:35Z</time>
      </trkpt>
      <trkpt lat="43.76643" lon="2.19645">
        <ele>194</ele>
        <time>2016-10-12T13:40:56Z</time>
      </trkpt>
      <trkpt lat="43.76666" lon="2.19634">
        <ele>194</ele>
        <time>2016-10-12T13:41:16Z</time>
      </trkpt>
      <trkpt lat="43.76691" lon="2.1962">
        <ele>194</ele>
        <time>2016-10-12T13:41:38Z</time>
      </trkpt>
      <trkpt lat="43.767" lon="2.19606">
        <ele>194</ele>
        <time>2016-10-12T13:41:54Z</time>
      </trkpt>
      <trkpt lat="43.76708" lon="2.19589">
        <ele>195</ele>
        <time>2016-10-12T13:42:09Z</time>
      </trkpt>
      <trkpt lat="43.76719" lon="2.19563">
        <ele>195</ele>
        <time>2016-10-12T13:42:31Z</time>
      </trkpt>
      <trkpt lat="43.76732" lon="2.19537">
        <ele>194</ele>
        <time>2016-10-12T13:42:54Z</time>
      </trkpt>
      <trkpt lat="43.76742" lon="2.19517">
        <ele>194</ele>
        <time>2016-10-12T13:43:13Z</time>
      </trkpt>
      <trkpt lat="43.76745" lon="2.19513">
        <ele>194</ele>
        <time>2016-10-12T13:43:18Z</time>
      </trkpt>
      <trkpt lat="43.76763" lon="2.19494">
        <ele>195</ele>
        <time>2016-10-12T13:43:40Z</time>
      </trkpt>
      <trkpt lat="43.76776" lon="2.19483">
        <ele>195</ele>
        <time>2016-10-12T13:43:56Z</time>
      </trkpt>
      <trkpt lat="43.76778" lon="2.19481">
        <ele>195</ele>
        <time>2016-10-12T13:43:58Z</time>
      </trkpt>
      <trkpt lat="43.7679" lon="2.19471">
        <ele>195</ele>
        <time>2016-10-12T13:44:11Z</time>
      </trkpt>
      <trkpt lat="43.76794" lon="2.19468">
        <ele>196</ele>
        <time>2016-10-12T13:44:15Z</time>
      </trkpt>
      <trkpt lat="43.76812" lon="2.19453">
        <ele>196</ele>
        <time>2016-10-12T13:44:35Z</time>
      </trkpt>
      <trkpt lat="43.76831" lon="2.19438">
        <ele>196</ele>
        <time>2016-10-12T13:44:54Z</time>
      </trkpt>
      <trkpt lat="43.76849" lon="2.19426">
        <ele>197</ele>
        <time>2016-10-12T13:45:11Z</time>
      </trkpt>
      <trkpt lat="43.76864" lon="2.19416">
        <ele>197</ele>
        <time>2016-10-12T13:45:25Z</time>
      </trkpt>
      <trkpt lat="43.76881" lon="2.19402">
        <ele>197</ele>
        <time>2016-10-12T13:45:41Z</time>
      </trkpt>
      <trkpt lat="43.76898" lon="2.1939">
        <ele>198</ele>
        <time>2016-10-12T13:45:58Z</time>
      </trkpt>
      <trkpt lat="43.76901" lon="2.19387">
        <ele>198</ele>
        <time>2016-10-12T13:46:01Z</time>
      </trkpt>
      <trkpt lat="43.76919" lon="2.19373">
        <ele>198</ele>
        <time>2016-10-12T13:46:19Z</time>
      </trkpt>
      <trkpt lat="43.76936" lon="2.19355">
        <ele>198</ele>
        <time>2016-10-12T13:46:39Z</time>
      </trkpt>
      <trkpt lat="43.76953" lon="2.19327">
        <ele>199</ele>
        <time>2016-10-12T13:47:00Z</time>
      </trkpt>
      <trkpt lat="43.76972" lon="2.19297">
        <ele>199</ele>
        <time>2016-10-12T13:47:23Z</time>
      </trkpt>
      <trkpt lat="43.76997" lon="2.1928">
        <ele>200</ele>
        <time>2016-10-12T13:47:46Z</time>
      </trkpt>
      <trkpt lat="43.77023" lon="2.19275">
        <ele>200</ele>
        <time>2016-10-12T13:48:06Z</time>
      </trkpt>
      <trkpt lat="43.7705" lon="2.19262">
        <ele>201</ele>
        <time>2016-10-12T13:48:29Z</time>
      </trkpt>
      <trkpt lat="43.77072" lon="2.1925">
        <ele>202</ele>
        <time>2016-10-12T13:48:50Z</time>
      </trkpt>
      <trkpt lat="43.77099" lon="2.19236">
        <ele>203</ele>
        <time>2016-10-12T13:49:16Z</time>
      </trkpt>
      <trkpt lat="43.77128" lon="2.19225">
        <ele>204</ele>
        <time>2016-10-12T13:49:41Z</time>
      </trkpt>
      <trkpt lat="43.7716" lon="2.19227">
        <ele>204</ele>
        <time>2016-10-12T13:50:05Z</time>
      </trkpt>
      <trkpt lat="43.77188" lon="2.1924">
        <ele>205</ele>
        <time>2016-10-12T13:50:27Z</time>
      </trkpt>
      <trkpt lat="43.77211" lon="2.19244">
        <ele>205</ele>
        <time>2016-10-12T13:50:45Z</time>
      </trkpt>
      <trkpt lat="43.77235" lon="2.19247">
        <ele>206</ele>
        <time>2016-10-12T13:51:04Z</time>
      </trkpt>
      <trkpt lat="43.77256" lon="2.19248">
        <ele>206</ele>
        <time>2016-10-12T13:51:21Z</time>
      </trkpt>
      <trkpt lat="43.77275" lon="2.19245">
        <ele>206</ele>
        <time>2016-10-12T13:51:39Z</time>
      </trkpt>
      <trkpt lat="43.77292" lon="2.19241">
        <ele>207</ele>
        <time>2016-10-12T13:51:55Z</time>
      </trkpt>
      <trkpt lat="43.77309" lon="2.19226">
        <ele>207</ele>
        <time>2016-10-12T13:52:12Z</time>
      </trkpt>
      <trkpt lat="43.77311" lon="2.19224">
        <ele>207</ele>
        <time>2016-10-12T13:52:17Z</time>
      </trkpt>
      <trkpt lat="43.77309" lon="2.19228">
        <ele>207</ele>
        <time>2016-10-12T13:52:21Z</time>
      </trkpt>
      <trkpt lat="43.77295" lon="2.19247">
        <ele>207</ele>
        <time>2016-10-12T13:52:37Z</time>
      </trkpt>
      <trkpt lat="43.77284" lon="2.19266">
        <ele>206</ele>
        <time>2016-10-12T13:52:55Z</time>
      </trkpt>
      <trkpt lat="43.77284" lon="2.19266">
        <ele>206</ele>
        <time>2016-10-12T13:53:15Z</time>
      </trkpt>
      <trkpt lat="43.77285" lon="2.19266">
        <ele>206</ele>
        <time>2016-10-12T13:53:36Z</time>
      </trkpt>
      <trkpt lat="43.77288" lon="2.19268">
        <ele>206</ele>
        <time>2016-10-12T13:53:39Z</time>
      </trkpt>
      <trkpt lat="43.77308" lon="2.19269">
        <ele>207</ele>
        <time>2016-10-12T13:53:56Z</time>
      </trkpt>
      <trkpt lat="43.77326" lon="2.19267">
        <ele>207</ele>
        <time>2016-10-12T13:54:11Z</time>
      </trkpt>
      <trkpt lat="43.77347" lon="2.19257">
        <ele>207</ele>
        <time>2016-10-12T13:54:30Z</time>
      </trkpt>
      <trkpt lat="43.77354" lon="2.19253">
        <ele>207</ele>
        <time>2016-10-12T13:54:37Z</time>
      </trkpt>
      <trkpt lat="43.77363" lon="2.19234">
        <ele>208</ele>
        <time>2016-10-12T13:54:53Z</time>
      </trkpt>
      <trkpt lat="43.77378" lon="2.19214">
        <ele>208</ele>
        <time>2016-10-12T13:55:11Z</time>
      </trkpt>
      <trkpt lat="43.77381" lon="2.19209">
        <ele>208</ele>
        <time>2016-10-12T13:55:15Z</time>
      </trkpt>
      <trkpt lat="43.77385" lon="2.19204">
        <ele>209</ele>
        <time>2016-10-12T13:55:20Z</time>
      </trkpt>
      <trkpt lat="43.77398" lon="2.19184">
        <ele>209</ele>
        <time>2016-10-12T13:55:37Z</time>
      </trkpt>
      <trkpt lat="43.77413" lon="2.19165">
        <ele>209</ele>
        <time>2016-10-12T13:55:54Z</time>
      </trkpt>
      <trkpt lat="43.77437" lon="2.19146">
        <ele>209</ele>
        <time>2016-10-12T13:56:13Z</time>
      </trkpt>
      <trkpt lat="43.7744" lon="2.19145">
        <ele>209</ele>
        <time>2016-10-12T13:56:16Z</time>
      </trkpt>
      <trkpt lat="43.77445" lon="2.19147">
        <ele>209</ele>
        <time>2016-10-12T13:56:21Z</time>
      </trkpt>
      <trkpt lat="43.77451" lon="2.19157">
        <ele>209</ele>
        <time>2016-10-12T13:56:37Z</time>
      </trkpt>
      <trkpt lat="43.7746" lon="2.19172">
        <ele>209</ele>
        <time>2016-10-12T13:56:49Z</time>
      </trkpt>
      <trkpt lat="43.77477" lon="2.19195">
        <ele>210</ele>
        <time>2016-10-12T13:57:06Z</time>
      </trkpt>
      <trkpt lat="43.77482" lon="2.19195">
        <ele>210</ele>
        <time>2016-10-12T13:57:12Z</time>
      </trkpt>
      <trkpt lat="43.775" lon="2.19183">
        <ele>210</ele>
        <time>2016-10-12T13:57:30Z</time>
      </trkpt>
      <trkpt lat="43.77505" lon="2.19182">
        <ele>210</ele>
        <time>2016-10-12T13:57:34Z</time>
      </trkpt>
      <trkpt lat="43.77527" lon="2.19175">
        <ele>211</ele>
        <time>2016-10-12T13:57:49Z</time>
      </trkpt>
      <trkpt lat="43.77539" lon="2.19164">
        <ele>211</ele>
        <time>2016-10-12T13:58:00Z</time>
      </trkpt>
      <trkpt lat="43.77544" lon="2.1916">
        <ele>211</ele>
        <time>2016-10-12T13:58:04Z</time>
      </trkpt>
      <trkpt lat="43.77562" lon="2.1915">
        <ele>212</ele>
        <time>2016-10-12T13:58:22Z</time>
      </trkpt>
      <trkpt lat="43.77563" lon="2.19151">
        <ele>212</ele>
        <time>2016-10-12T13:58:23Z</time>
      </trkpt>
      <trkpt lat="43.77583" lon="2.19152">
        <ele>212</ele>
        <time>2016-10-12T13:58:41Z</time>
      </trkpt>
      <trkpt lat="43.77607" lon="2.19146">
        <ele>213</ele>
        <time>2016-10-12T13:58:59Z</time>
      </trkpt>
      <trkpt lat="43.77615" lon="2.19145">
        <ele>213</ele>
        <time>2016-10-12T13:59:06Z</time>
      </trkpt>
      <trkpt lat="43.77631" lon="2.19136">
        <ele>213</ele>
        <time>2016-10-12T13:59:22Z</time>
      </trkpt>
      <trkpt lat="43.77637" lon="2.1913">
        <ele>213</ele>
        <time>2016-10-12T13:59:28Z</time>
      </trkpt>
      <trkpt lat="43.77644" lon="2.19128">
        <ele>213</ele>
        <time>2016-10-12T13:59:41Z</time>
      </trkpt>
      <trkpt lat="43.77644" lon="2.19128">
        <ele>213</ele>
        <time>2016-10-12T13:59:45Z</time>
      </trkpt>
    </trkseg>
  </trk>
</gpx>